Prev: Sakura
Next: Unitrade

WNS catalog - Russia

Name: WNS
Abbrev: WNS
Full name: World Numbering System
Visibility: public


stamp
Number Isort Sort Source
RU018.13. postage 2/22/2013 15r multi issue=Hero..Russian Federation d=V.I. Shkurny unwmk 2 5 xl 514494
RU019.13. 2/22/2013 15r d=Hero of Russian Federation E N Chernyshev 1963-2010 2 4 xl 514493
20
RU021.13. 2/22/2013 15r d=Hero of Russian Federation N S Maidanov 1956-2000 2 3 xl 514492
2002
RU001.02 1/2/2002 3.00r issue=Russia Regions dt=Russia regions d=Republic of Altai 1 xl 223631
RU002.02 1/2/2002 3.00r d=Province of Amur 1 0 xl 223632
RU003.02 1/2/2002 3.00r d=Karachaevo-Cherkeskaya Republic 1 0 xl 223633
RU004.02 1/2/2002 3.00r d=Province of Sakhalin 1 0 xl 223634
RU005.02 1/2/2002 3.00r d=Republic of Khakassiya 1 0 xl 223635
RU006.02 1/24/2002 3.00r issue=Winter Olympics 2002 d=Mountain skiing 1 xl 223636
RU007.02 1/24/2002 4.00r d=figure skating (2002) 1 xl 223637
RU008.02 1/24/2002 5.00r d=ski jumping 1 xl 223638
RU009.02 1/30/2002 5.00r issue=World Unity Against Terrorism 1 xl 223639
RU010.02 1/30/2002 12.00r issue=100 Years of Trans-Siberian Railway 2 xl 223640
RU011.02 2/15/2002 2.50r issue=New Hermitage 150th d=Hendrick Goltzius - Courtesan 1606 1 xl 223641
RU012.02 2/15/2002 2.50r d=Peter Paul Rubens ' Ecco Homo' before 1612 1 0 xl 223642
RU013.02 2/15/2002 5.00r d=The Gonzaga Cameo Alexandria, 3rd Century BC 1 xl 223643
RU014.02 2/15/2002 5.00r d=Master Philippo Negr..Helmet (Burgonet) - Italy in the 1530's 1 0 xl 223644
RU015.02 2/15/2002 15r 1 xl 223645
RU016.02 2/20/2002 2.50r dt=lilies (2002) d=Cinnabar Lily - 'Our Congratulations' xl 223646
RU017.02 2/20/2002 2.50r d=Thunderbolt Lily - 'Happy Birthday' 0 xl 223647
RU018.02 2/20/2002 2.50r d=Stargazer Lily - 'We wish you Happiness' 0 xl 223648
RU019.02 2/20/2002 2.50r d=Gilded Lily - 'From the bottom of our hearts' 0 xl 223649
RU020.02 2/20/2002 2.50r d=Regal Lily - 'We wish you love and joy' 0 xl 223650
RU021.02 3/15/2002 1.00r dt=dogs (2002 Russia) d=Cane-Corso xl 223651
RU022.02 3/15/2002 2.00r d=Shar Pei xl 223652
RU023.02 3/15/2002 3.00r d=Bull Mastiff (2002) xl 223653
RU024.02 3/15/2002 4.00r d=Brazilian Mastiff xl 223654
RU025.02 3/15/2002 5.00r d=Neapolitan Mastiff (2002) xl 223655
RU026.02 4/25/2002 5.00r issue=300th Anniversar..es figures of the New Hermitage portico 1 xl 223656
RU027.02 4/25/2002 5.00r d=Kazan Cathederal and the Monument of Marshal Barklay de Tolli 1 0 xl 223657
RU028.02 4/25/2002 25r d=View of St Peter and Paul Fortress and the Neva River 1 xl 223658
RU029.02 4/25/2002 25r d=View of the Griboedov .. guey and the Cathedral of Resurrection 1 0 xl 223659
RU030.02 4/25/2002 25r d=Admiralty and the Admi.. gilded ship, a symbol of St Petersburg 1 0 xl 223660
RU031.02 4/30/2002 2.00r issue=80th Anniversary..n Russia d=Artur Khristianovich Artuzov 1 xl 223661
RU032.02 4/30/2002 2.00r d=Nikolai Ivanovich Demidenko 1 0 xl 223662
RU033.02 4/30/2002 2.00r d=Jan Kalikstovich Olsky 1 0 xl 223663
RU034.02 4/30/2002 2.00r d=Sergei Vasilievich Puzitsky 1 0 xl 223664
RU035.02 4/30/2002 2.00r d=Vladimir Andreevich Styrne 1 0 xl 223665
RU036.02 4/30/2002 2.00r d=Grigory Sergeevich Syroezhkin 1 0 xl 223666
RU037.02 5/9/2002 8.00r issue=Europa 2002 1 xl 223667
RU038.02 5/24/2002 2.00r issue=Birth Centenary of P.S. Nakhimov 1 xl 223668
RU039.02 5/24/2002 2.00r issue=5th EUROSAI Congress 2 xl 223669
RU040.02 6/20/2002 1.00r dt=volcanoes of Kamcha..and thermal springs and geysers vaports xl 223670
RU041.02 6/20/2002 2.00r d=Mud caldron in the caldera of Uzon Volcano xl 223671
RU042.02 6/20/2002 3.00r d=Karymsky active Volcano xl 223672
RU043.02 6/20/2002 5.00r d=Troitsky acid crater lake xl 223673
RU044.02 7/25/2002 2.50r dt=old carriages d=Old style carriage (the 1640's) xl 223674
RU045.02 7/25/2002 2.50r d=Closed sleigh - Moscow 1732 0 xl 223675
RU046.02 7/25/2002 5.00r d=Carriage of the 'Coupe' type - Berlin 1746 xl 223676
RU047.02 7/25/2002 5.00r d=Calash - England (the 1770's) 0 xl 223677
RU048.02 7/25/2002 5.00r d=Carriage of the 'Berline' type - Petersburg 1769 0 xl 223678
RU049.02 7/25/2002 25r d=Carriage of 'Coupe' type - Berlin 1746 xl 223679
RU050.02 7/25/2002 25r d=Calash - England (the 1770's) 0 xl 223680
RU051.02 7/25/2002 25r d=Carriage of the 'Berline' type - Petersburg 1769 0 xl 223681
RU052.02 8/8/2002 1.00r dt=Kamov Company helicopters d=Ka-10 xl 223682
RU053.02 8/8/2002 1.50r d=Ka-22 xl 223683
RU054.02 8/8/2002 2.00r d=Ka-26 xl 223684
RU055.02 8/8/2002 2.50r d=Ka-27 xl 223685
RU056.02 8/8/2002 5.00r d=Ka-50 xl 223686
RU057.02 8/10/2002 3.25r issue=Sobchak 65th d=A.A. Sobchak 1 xl 223687
RU058.02 8/29/2002 2.50r issue=Russia-Kazakh Jo..d=Demoiselle crane (Anthropaides vigro) 1 xl 223688
RU059.02 8/29/2002 2.50r d=Great black-headed Gull (Larusichthyaetus Pallas) 1 0 xl 223689
RU060.02 9/2/2002 3.00r issue=200th Anniversary..ernal Affairs of the Russian Federation 1 xl 223690
RU061.02 9/2/2002 3.00r d=The Ministry of Foreign Affairs of the Russian Federation 1 0 xl 223691
RU062.02 9/2/2002 3.00r d=The Ministry of Defence of the Russian Federation 1 0 xl 223692
RU063.02 9/2/2002 3.00r d=The Ministry of Education of the Russian Federation 1 0 xl 223693
RU064.02 9/2/2002 3.00r d=The Ministry of Finance of the Russian Federation 1 0 xl 223694
RU065.02 9/2/2002 3.00r d=The Ministry of Justice of the Russian Federation 1 0 xl 223695
RU066.02 9/2/2002 2.00r issue=850th Anniversary of Kostroma 2 xl 223696
RU067.02 9/17/2002 3.00r issue=1140th Anniversary of Russian State 1 xl 223697
RU068.02 9/17/2002 3.00r issue=All-Russia Population Census 2 xl 223698
RU069.02 9/17/2002 4.00r 2 xl 223699
RU070.02 9/25/2002 2.00r issue=History of Russi..ustoms Castle and bourse in Archangelsk 1 xl 223700
RU071.02 9/25/2002 3.00r d=customs Officers in St Petersburg 1 xl 223701
RU072.02 9/25/2002 5.00r d=Kalanchovsky Customs warehouse in Kalanchovsky Square 1 xl 223702
RU073.02 10/4/2002 10.00r issue=60th Anniversary of Battle of Stalingrad 1 xl 223703
RU074.02 10/17/2002 1.50r issue=Human Eyes dt=h..yes d=eyes expressing interest, emotion 1 1 xl 223704
RU075.02 10/17/2002 1.50r d=eyes expressing gladness 1 2 xl 223705
RU076.02 10/17/2002 1.50r d=eyes expressing astonishment 1 3 xl 223706
RU077.02 10/17/2002 1.50r d=eyes expressing grief, suffering 1 4 xl 223707
RU078.02 10/17/2002 1.50r d=eyes expressing anger 1 5 xl 223708
RU079.02 10/17/2002 1.50r d=eyes expressing disgust 1 6 xl 223709
RU080.02 10/17/2002 1.50r d=eyes expressing shame 1 7 xl 223710
RU081.02 10/17/2002 1.50r d=eyes expressing contempt 1 8 xl 223711
RU082.02 10/17/2002 1.50r d=eyes expressing guilt 1 9 xl 223712
RU083.02 10/17/2002 1.50r d=eyes expressing fear 1 10 xl 223713
RU084.02 11/12/2002 4.00r issue=History of Russ.. Accession to the Throne of Alexander I 1 xl 223714
RU085.02 11/12/2002 4.00r d=Alexander I - Octob..General Plan for the Code of State Laws 1 0 xl 223715
RU086.02 11/12/2002 7.00r d=Alexander I - Enter..at head of Russian Troops March 31 1814 1 xl 223716
RU087.02 11/12/2002 7.00r d=Alexander I - Reception of N.M. Karamzin 1 0 xl 223717
RU088.02 11/12/2002 10.00r d=Tsar Alexander I portrait 1 xl 223718
RU089.02 11/26/2002 5.00r dt=monasteries of the..h d=Monastery of Saint Daniel in Moscow xl 223719
RU090.02 11/26/2002 5.00r d=The Sergii Laura of the Holy Trinity in Sergiev Posad 0 xl 223720
RU091.02 11/26/2002 5.00r d=The Valaam Monastery of Reverend Savva of Storozha 0 xl 223721
RU092.02 11/26/2002 5.00r d=The Monastery of Reverend Savva of Storozha 0 xl 223722
RU093.02 11/26/2002 5.00r d=The Pskov Cave Monastery of the Holy Assumption 0 xl 223723
RU094.02 12/2/2002 3.50r issue=Happy New Year 2003 d=snowman skiing 1 xl 223724
RU095.02 12/16/2002 2.00r issue=2002 d=Arkhangelskoe 1 xl 223725
RU096.02 12/16/2002 2.50r d=Oranienbaum Chinese Palace 1 xl 223726
RU097.02 12/16/2002 3.00r d=Marfino Mansion 1 xl 223727
RU098.02 12/16/2002 4.00r d=Pavlovsk Palace (2002) 1 xl 223728
RU099.02 12/16/2002 5.00r d=Kuskovo Palace 1 xl 223729
2003
RU001.03 1/8/2003 2.50r issue=Centenary of I.V. Kurchatov 2 xl 243880
RU002.03 1/8/2003 2.50r issue=Birth Centenary of A.P. Alexandrov 3 xl 243881
RU003.03 1/8/2003 5.00r issue=Research of Antarctica 1 xl 243882
RU004.03 1/8/2003 5.00r 1 0 xl 243883
RU005.03 1/10/2003 3.00r issue=Regions of Russia d=Kemerovo Region 1 xl 243884
RU006.03 1/10/2003 3.00r d=Magadan Region 1 0 xl 243885
RU007.03 1/10/2003 3.00r d=Kurgan Region 1 0 xl 243886
RU008.03 1/10/2003 3.00r d=Perm Region 1 0 xl 243887
RU009.03 1/10/2003 3.00r d=Astrakhan Region 1 0 xl 243888
RU010.03 1/10/2003 3.00r d=Uljanov Region 1 0 xl 243889
RU011.03 1/16/2003 3.00r issue=10th Anniversary..ergovernmental Communication by Courier 1 xl 243890
RU012.03 2/19/2003 4.00r issue=Davis Cup 2002 1 xl 243891
RU013.03 2/19/2003 8.00r 1 xl 243892
RU014.03 2/19/2003 50r 1 xl 243893
RU015.03 3/4/2003 8.00r issue=History of Russian State d=Yaroslav the Wise 1 xl 243894
RU016.03 3/4/2003 8.00r d=Vladimir Monomach 1 0 xl 243895
RU017.03 3/4/2003 8.00r d=Daniel of Moscow 1 0 xl 243896
RU018.03 3/4/2003 8.00r d=Ivan Ivanovich the Red 1 0 xl 243897
RU019.03 3/26/2003 5.00r issue=Monasteries of t..unnery of the Mother of God of Smolensk 1 xl 243898
RU020.03 3/26/2003 5.00r d=The Solovetsky Zosima and Savvatii Monastery 1 0 xl 243899
RU021.03 3/26/2003 5.00r d=The Seraphim Nunnery of the Holy Trinity in Diveyevo 1 0 xl 243900
0322 - 0323
RU024.03 3/26/2003 5.00r d=The Kozelsk Optina Pustyn Monastery 1 0 xl 243903
RU025.03 3/26/2003 3.00r issue=300th Anniversary of Petrozavodsk 2 xl 243904
RU026.03 4/15/2003 3.00r issue=100 Years of Novosibirsk 1 xl 243905
RU027.03 4/15/2003 12.00r issue=300th Anniversary of Baltic Fleet 2 xl 243906
RU028.03 4/24/2003 2.50r issue=Birth Centenary of Aram Khachaturyan 1 xl 243907
RU029.03 5/5/2003 8.00r issue=Europa 2003 1 xl 243908
RU030.03 5/15/2003 5.00r issue=300th Anniversary of Saint Petersburg d=The Summer Garden 1 xl 243909
RU031.03 5/15/2003 5.00r d=The View of the Winter Garden 1 0 xl 243910
RU032.03 5/15/2003 5.00r d=The Palace Square 1 0 xl 243911
RU033.03 5/15/2003 5.00r d=The view of Spit of Vasilievsky Island 1 0 xl 243912
RU034.03 5/15/2003 5.00r d=The view of a bridge across the Neva River 1 0 xl 243913
RU035.03 5/15/2003 5.00r d=The view of the Anichkov Bridge across the Fontanka River 1 0 xl 243914
RU036.03 5/15/2003 50r d=Monument of Peter I 'The Bronze Horseman' 1 xl 243915
RU037.03 5/15/2003 5.00r issue=Carillon - Russia - Belgium Joint Issue 1 xl 243916
RU038.03 5/15/2003 5.00r 1 0 xl 243917
RU039.03 5/20/2003 3.00r issue=40th Anniversary..s First Space flight by V.V. Tereshkova 1 xl 243918
RU040.03 5/23/2003 75r issue=300th Anniversary of Saint Petersburg 1 xl 243919
RU041.03 5/23/2003 100r 1 xl 243920
RU042.03 5/25/2003 3.00r issue=Second World Ant..onference - 'XXI Century without Drugs' 1 xl 243921
RU043.03 6/3/2003 3.00r issue=110 Years of Pskov 1 xl 243922
RU044.03 6/10/2003 4.00r issue=375 Years of Krasnoyarsk 1 xl 243923
RU045.03 6/10/2003 10.00r issue=60th Anniversary of Battle of Kursk 2 xl 243924
RU046.03 6/10/2003 5.00r issue=Counteraction Ag..on of Incomes Obtained by Illegal Means 3 xl 243925
RU047.03 6/25/2003 2.00r issue=World Natural He..one Pillars on the Man-Pupuner Mountain 1 xl 243926
RU048.03 6/25/2003 3.00r d=Kozhim River 1 xl 243927
RU049.03 6/25/2003 5.00r d=The Upper Pechora 1 xl 243928
RU050.03 6/29/2003 12.00r issue=300 Years of Post of Saint Petersburg 1 xl 243929
RU051.03 7/22/2003 1.00r dt=beetles (2003 Russia) d=Lucanus cervus (2003) xl 243930
RU052.03 7/22/2003 2.00r d=Calosoma sycophanta (2003) xl 243931
RU053.03 7/22/2003 3.00r d=Carabus lopatini xl 243932
RU054.03 7/22/2003 4.00r d=Carabus constricticollis xl 243933
RU055.03 7/22/2003 5.00r d=Carabus caucasicus xl 243934
RU056.03 7/30/2003 2.50r issue=10th Anniversary..al Association of Academies of Sciences 1 xl 243935
RU057.03 8/14/2003 4.00r issue=World Climate Change Conference 2 xl 243936
RU058.03 8/14/2003 3.00r issue=350 Years of Chita 1 xl 243937
RU059.03 8/20/2003 2.00r issue=Twin Mushrooms d..oms d=Boletus satanas & Boletus kuridus 1 xl 243938
RU060.03 8/20/2003 2.50r d=Amanita phalloides & Agaricus campestris 1 xl 243939
RU061.03 8/20/2003 3.00r d=Amanita pantherina & Amanita rubescens 1 xl 243940
RU062.03 8/20/2003 4.00r d=Amanita porphyria & Amanita vaginata 1 xl 243941
RU063.03 8/20/2003 5.00r d=Tylopilus felleus & Boletus edulis 1 xl 243942
RU064.03 8/27/2003 5.00r issue=Gifts of Nature ..fruits (2003 Russia) d=pineapple (2003) 1 xl 243943
RU065.03 8/27/2003 5.00r d=pear (2003) 1 0 xl 243944
RU066.03 8/27/2003 5.00r d=Melon 1 0 xl 243945
RU067.03 8/27/2003 5.00r d=wild strawberry 1 0 xl 243946
RU068.03 8/27/2003 5.00r d=apples (2003) 1 0 xl 243947
RU069.03 9/9/2003 2.50r issue=Preserve the Caspian Sea Environment d=Caspian seal (2003) 1 1 xl 243948
RU070.03 9/9/2003 2.50r d=beluga (2003) 1 2 xl 243949
RU071.03 9/12/2003 10.00r issue=300th Anniversary of Russian Journalism 1 xl 243950
RU072.03 9/17/2003 3.00r issue=History of Russi..Cars d=Russo-Balt K 12/20, made in 1911 1 xl 243951
RU073.03 9/17/2003 4.00r d=NAMI - 1 , made in 1929 1 xl 243952
RU074.03 9/17/2003 4.00r d=GAZ M1, made in 1939 1 0 xl 243953
RU075.03 9/17/2003 5.00r d=GAZ 67b, made in 1946 1 xl 243954
RU076.03 9/17/2003 5.00r d=GAZ M20 'Podeba (Victory)', made in 1954 1 0 xl 243955
RU077.03 10/15/2003 3.00r issue=10th Anniversary of the Russian Federation Constitution 1 xl 243956
RU078.03 10/15/2003 4.00r issue=100th Anniversary of the Birth of E.T. Krenkel 2 xl 243957
RU079.03 11/5/2003 12.00r issue=150th Anniversary of the Battle of Sinop 1 xl 243958
RU080.03 12/1/2003 7.00r issue=New Year 2004 1 xl 243959
RU081.03 12/5/2003 1.00r issue=2003 d=Ostankino Palace 1 xl 243960
RU082.03 12/5/2003 1.50r d=Gatchinsky Palace 1 xl 243961
RU083.03 12/5/2003 6.00r d=The Great Palace of Pedrodvorets 1 xl 243962
RU084.03 12/5/2003 10.00r d=The Catherine Palace in Tsarskoye Selo 1 xl 243963
RU085.03 12/10/2003 2.50r issue=10th Anniversar..the Russian Federation Federal Assembly 1 xl 243964
RU086.03 12/10/2003 2.50r 1 0 xl 243965
2004
RU001.04 1/6/2004 5r dt=oblasts (2004) d=Belgorod Oblast 1 xl 133759
RU002.04 1/6/2004 5r d=Ivanovo region 2 xl 133760
RU003.04 1/6/2004 5r d=Lipetsk region 5 xl 133761
RU004.04 1/6/2004 5r d=Moscow region 4 xl 133762
RU005.04 1/6/2004 5r d=Nenetsky Autonomous Region 6 xl 133763
RU006.04 1/6/2004 5r d=Nizhny Novgorod Region 3 xl 133764
RU007.04 1/16/2004 10r issue=WW II 1944 offensives 60th 1 xl 133765
RU008.04 1/23/2004 3r issue=Chkalov 100th d=plane & V. P. Chkalov 1 xl 133766
RU009.04 1/27/2004 2r dt=Bazhov tales d=The Stone Flower xl 133767
RU010.04 1/27/2004 4r d=The Malachite Box xl 133768
RU011.04 1/27/2004 6r d=The Golden Hair xl 133769
RU012.04 2/12/2004 3r issue=Khariton 100th d=Yuly B. Khariton 1 xl 133770
RU013.04 2/20/2004 3r issue=Gagarin 70th d=Yuri Gagarin (2004) 1 xl 133771
RU014.04 3/16/2004 8r dt=monasteries (2002) d=The Russian Svyato-Panteleymonov monastery 1 xl 133772
RU015.04 3/16/2004 8r d=The Svyato-Uspenskaya Kiyevo-Pecherskaya Laura 2 xl 133773
RU016.04 3/16/2004 8r d=The Spaso-Efrosinievsky Convent for women in Polotsk 3 xl 133774
RU017.04 3/16/2004 8r d=The Gornensky Convent for women 4 xl 133775
RU018.04 3/16/2004 8r d=The Pukhtitsky monastery of the Blessed Virgins Assumption 5 xl 133776
RU019.04 4/5/2004 2r brn issue=2004 dt=sculptur..definitive stamp issue - Arkhangelskoye 1 xl 1347816
RU020.04 4/5/2004 2.50r bl d=Fourth definitive stamp issue - Pavlovsk 1 xl 1347819
RU021.04 4/5/2004 2.50r same as prev 1 0 xl 1347817
RU022.04 4/5/2004 5r pur d=Kuskovo 1 xl 1347820
RU023.04 4/5/2004 3r ind d=Fourth definitive stamp issue - Marfino 1 xl 1347818
RU024.04 4/15/2004 4r multi issue=Kronshtadt 300th 1 xl 133782
RU025.04 4/21/2004 5r dt=zodiac (2004) d=Aries (2004) 1 xl 133783
RU026.04 4/21/2004 5r d=Taurus (2004 Russia) 2 xl 133784
RU027.04 4/21/2004 5r d=Gemini (2004 Russia) 3 xl 133785
RU028.04 4/21/2004 5r d=Cancer 4 xl 133786
RU029.04 4/21/2004 5r d=Leo (2004 Russia) 5 xl 133787
RU030.04 4/21/2004 5r d=Virgo (2004) 6 xl 133788
RU031.04 4/21/2004 5r d=Libra (2004) 7 xl 133789
RU032.04 4/21/2004 5r d=Scorpio (2004) 8 xl 133790
RU033.04 4/21/2004 5r d=Sagittarius (2004) 9 xl 133791
RU034.04 4/21/2004 5r d=Capricornus 10 xl 133792
RU035.04 4/21/2004 5r d=Aquarius (2004 Russia) 11 xl 133793
RU036.04 4/21/2004 5r d=Pisces (2004 Russia) 12 xl 133794
RU037.04 4/27/2004 6r dt=Catherine the Great xl 133795
RU038.04 4/27/2004 7r xl 133796
RU039.04 4/27/2004 8r xl 133797
RU040.04 4/27/2004 9r xl 133798
RU041.04 4/27/2004 15r xl 133799
RU042.04 5/5/2004 8r issue=Europa 2004 d=beach scene with umbrella 1 xl 133800
RU043.04 5/12/2004 10r issue=Port Arthur defense 100th 1 xl 133801
RU044.04 5/20/2004 4r issue=Glinka 200th d=Portrait of composer M I Glinka 1 1 xl 133802
RU045.04 5/20/2004 4r d=Life for the Tsar Opera by M I Glinka 1 2 xl 133803
RU046.04 5/20/2004 4r d=Ruslan & Ludmila Opera by M I Glinka 1 3 xl 133804
RU047.04 5/25/2004 5r dt=Amber Room treasures d=Amber Room - Russian Crown 1 xl 133805
RU048.04 5/25/2004 5r d=Amber Room - Cameo 'Moses and Pharaon' 2 xl 133806
RU049.04 5/25/2004 5r d=Amber Room - Engraved Head 3 xl 133807
RU050.04 5/25/2004 25r d=Amber Room - Florentine Mosaic 4 xl 133808
RU051.04 6/3/2004 8r issue=German-Russian youth meeting 1 xl 133809
RU052.04 6/8/2004 3r issue=Vladimir K. Kokkinaki 100th d=Vladimir K. Kokkinaki & planes 1 xl 133810
RU053.04 6/8/2004 5r dt=Prisekin paintings d=We Glorify the Homeland! - Victory 3 xl 133811
RU054.04 6/8/2004 5r d=We Glorify the Homeland!..h the sword will perish with the sword! 2 xl 133812
RU055.04 6/8/2004 5r d=We Glorify the Homeland! - Marshal Zhukov 1 xl 133813
RU056.04 6/8/2004 5r d=We Glorify the Homeland! - Smolensk 1812 4 xl 133814
RU057.04 7/15/2004 4r dt=women's riding outfits 1 xl 133815
RU058.04 7/15/2004 4r 2 xl 133816
RU059.04 7/15/2004 4r 3 xl 133817
RU060.04 7/20/2004 3r issue=Olympics 2004 d=modern & ancient runners 1 xl 133818
RU061.04 7/20/2004 8r 1 xl 133819
RU062.04 7/22/2004 12r issue=Admiralty of the Wharves 200th 1 xl 133820
RU063.04 8/5/2004 4r dt=children & road safety 1 xl 133821
RU064.04 8/5/2004 4r 2 xl 133822
RU065.04 8/5/2004 4r 3 xl 133823
RU066.04 8/5/2004 4r 4 xl 133824
RU067.04 8/5/2004 4r 5 xl 133825
RU068.04 8/12/2004 8r issue=WWF dt=Gulo gulo bear d=wolverine 1 1 xl 133826
RU069.04 8/12/2004 8r d=Wolverine with prey 1 2 xl 133827
RU070.04 8/12/2004 8r d=Wolverine on tree 1 3 xl 133828
RU071.04 8/12/2004 8r d=Wolverine with cubs 1 4 xl 133829
RU072.04 8/20/2004 4r issue=Tomsk 400th 1 xl 133830
RU073.04 8/20/2004 4r issue=ITAR-TASS 100th d=hand holding globe 2 xl 133831
RU074.04 9/8/2004 5r dt=notable men (2004) 1 xl 133832
RU075.04 9/8/2004 5r 2 xl 133833
RU076.04 9/10/2004 10r issue=Tsar Paul I 250th 1 1 xl 133834
RU077.04 9/10/2004 10r 1 2 xl 133835
RU078.04 9/10/2004 20r 1 3 xl 133836
RU079.04 9/16/2004 4r issue=Rerikh 100th d=mountains & S.N. Rerikh 1 xl 133837
RU080.04 10/7/2004 12r issue=Vselovod III 850th d=Vselovod III 1 xl 133838
RU081.04 10/20/2004 5r issue=Kazan State University 200th 1 xl 133839
RU082.04 10/26/2004 4.70r dt=silverwork d=Vase the 1880s-1890s 1 xl 133840
RU083.04 10/26/2004 4.70r d=milk jug the 1900s 2 xl 133841
RU084.04 10/26/2004 4.70r d=Vase 1900-1908 3 xl 133842
RU085.04 10/26/2004 4.70r d=ladle the 1910s 4 xl 133843
RU086.04 11/12/2004 5r issue=New Year 2005 d=tree 1 xl 133844
RU087.04 11/18/2004 2r dt=Altai landscapes xl 133845
RU088.04 11/18/2004 3r xl 133846
RU089.04 11/18/2004 5r xl 133847
RU090.04 12/1/2004 2.50r issue=Baikonur Cosmodrome 50th d=R-7 missile 1 xl 133848
RU091.04 12/1/2004 3.50r 1 xl 133849
RU092.04 12/1/2004 4r 1 xl 133850
RU093.04 12/1/2004 6r 1 xl 133851
2005
RU001.05 1/10/2005 5.00r issue=Russian Regions 2005 d=Koryak Autonomous Region 1 xl 410143
RU002.05 1/10/2005 5.00r d=Republic of Mordovia 1 0 xl 410144
RU003.05 1/10/2005 5.00r d=Smolensk Region 1 0 xl 410145
RU004.05 1/10/2005 5.00r d=Taimyr Autonomous Region 1 0 xl 410146
RU005.05 1/10/2005 5.00r d=Tver Region 1 0 xl 410147
RU006.05 1/10/2005 5.00r d=Chukotski Autonomous Region 1 0 xl 410148
RU007.05 1/12/2005 5.00r issue=250th Anniversary of Lomonosov State University 1 xl 410149
RU008.05 2/21/2005 15r issue=EXPO 2005 1 xl 410150
RU009.05 2/25/2005 5.00r dt=treasures of Sarmat d=Bull Silver bowl xl 410151
RU010.05 2/25/2005 5.00r d=Bear Gold wood goblet 0 xl 410152
RU011.05 2/25/2005 7.00r d=Camels Gold sphere xl 410153
RU012.05 2/25/2005 7.00r d=Deer Gold sphere 0 xl 410154
RU013.05 3/3/2005 2.00r issue=Centenary of Russian Submarine Fleet d=Type M submarine 1 xl 410155
RU014.05 3/3/2005 3.00r d=Type S submarine 1 xl 410156
RU015.05 3/3/2005 5.00r d=Type Sch submarine 1 xl 410157
RU016.05 3/3/2005 8.00r d=Type K submarine 1 xl 410158
RU017.05 3/10/2005 5.00r issue=Millennium of Kazan d=Suyumbike Tower 1 xl 410159
RU018.05 3/10/2005 5.00r d=Kul Sharif Mosque 1 0 xl 410160
RU019.05 3/10/2005 7.00r d=The Cathedral of the Annunciation 1 xl 410161
RU020.05 3/28/2005 10.00r issue=Emperor Alexander II 1 xl 410162
RU021.05 3/28/2005 10.00r 1 0 xl 410163
RU022.05 3/28/2005 10.00r 1 0 xl 410164
RU023.05 3/28/2005 10.00r 1 0 xl 410165
RU024.05 3/28/2005 10.00r 1 0 xl 410166
RU025.05 4/5/2005 2.00r issue=60th Anniversary of Victory in World War II 1 xl 410167
RU026.05 4/5/2005 2.00r 1 0 xl 410168
RU027.05 4/5/2005 3.00r 1 xl 410169
RU028.05 4/5/2005 3.00r 1 0 xl 410170
RU029.05 4/5/2005 5.00r 1 xl 410171
RU030.05 4/5/2005 10.00r 1 xl 410172
RU031.05 4/13/2005 6.00r issue=60th Anniversary of Liberation of Vienna 1 xl 410173
RU032.05 4/15/2005 5.00r issue=Belarus-Russia joint issue d=eagle (2005) 1 xl 410174
RU033.05 4/15/2005 5.00r d=Butterflies 1 0 xl 410175
RU034.05 4/15/2005 5.00r d=beaver (2005 Russia) 1 0 xl 410176
RU035.05 4/15/2005 5.00r d=badger (2005) 1 0 xl 410177
RU036.05 4/25/2005 5.00r issue=70th Anniversary of Moscow Metro 1 xl 410178
RU037.05 4/25/2005 10.00r 1 xl 410179
RU038.05 5/5/2005 4.00r issue=Moscow - Candidate city to Host Olympiad 2012 1 xl 410180
RU039.05 5/5/2005 8.00r issue=Europa 2005 2 xl 410181
RU040.05 5/20/2005 5.00r issue=Birth Centenary of M.A. Sholokhov 1 xl 410182
RU041.05 6/1/2005 8.00r issue=DPRK-Russia joint issue d=sable (2005) 1 xl 410183
RU042.05 6/1/2005 8.00r d=tiger (2005) 1 0 xl 410184
RU043.05 6/15/2005 3.00r dt=Bumblebees d=Bombus armeniacus xl 410185
RU044.05 6/15/2005 4.00r d=Bombus fragrans xl 410186
RU045.05 6/15/2005 5.00r d=Bombus anachoreta xl 410187
RU046.05 6/15/2005 6.00r d=Bombus unicus xl 410188
RU047.05 6/15/2005 7.00r d=Bombus czerskii xl 410189
RU048.05 6/23/2005 5.00r issue=750th Anniversary of Kaliningrad 1 xl 410190
RU049.05 7/1/2005 5.00r issue=175th Anniversary of Moscow Technical University 1 xl 410191
RU050.05 7/4/2005 5.00r dt=lighthouses (2005 Russia) d=Mudyugsky lighthouse xl 410192
RU051.05 7/4/2005 6.00r d=Solovetsky lighthouse xl 410193
RU052.05 7/4/2005 8.00r d=Svyatonossky lighthouse xl 410194
RU053.05 7/6/2005 5.00r issue=Birth Centenary of A.I. Mikoyan dt=MiG aircraft d=MiG-3 1 1 xl 410195
RU054.05 7/6/2005 5.00r d=MiG-15 (2005) 1 2 xl 410196
RU055.05 7/6/2005 5.00r d=MiG-21 (2005) 1 3 xl 410197
RU056.05 7/6/2005 5.00r d=MiG-25 1 4 xl 410198
RU057.05 7/6/2005 5.00r d=MiG-29 (2005) 1 5 xl 410199
RU058.05 8/2/2005 15r issue=625th Anniversary of Kulikovo Battle 1 xl 410200
RU059.05 8/16/2005 3.00r issue=The Earth - Light-blue Planet d=Water and hands 1 xl 410201
RU060.05 8/16/2005 3.50r d=wave 1 xl 410202
RU061.05 8/16/2005 4.00r d=Ice rock 1 xl 410203
RU062.05 8/16/2005 4.50r d=The mountain river 1 xl 410204
RU063.05 8/16/2005 5.00r d=Drops of water 1 xl 410205
RU064.05 9/15/2005 4.00r issue=275th Anniversar..nder Suvorov d=Alexander Suvorov (2005) 1 xl 410206
RU065.05 10/19/2005 2.00r issue=300th Anniversary of the Sea Infantry of Russia 1 xl 410207
RU066.05 10/19/2005 3.00r 1 xl 410208
RU067.05 10/19/2005 4.00r 1 xl 410209
RU068.05 10/19/2005 5.00r 1 xl 410210
RU069.05 10/26/2005 5.00r d=Ded Moroz's postage stamp xl 410211
RU070.05 11/1/2005 5.60r issue=60th Anniversary of UNESCO 1 xl 410212
RU071.05 12/1/2005 5.60r issue=Christmas 2005 / Happy New Year 2006 1 xl 410213
2006
RU001.06 1/12/2006 5.60r issue=OKB Planes by O.K. Antonov d=An-3T 1 xl 410224
RU002.06 1/12/2006 5.60r d=An-12 1 0 xl 410225
RU003.06 1/12/2006 5.60r d=An-24 (2006) 1 0 xl 410226
RU004.06 1/12/2006 5.60r d=An-74 1 0 xl 410227
RU005.06 1/12/2006 5.60r d=An-124 1 0 xl 410228
RU006.06 1/18/2006 4.00r issue=Winter Olympics 2006 d=Snowboard 1 xl 410229
RU007.06 1/18/2006 4.00r d=luge (2006) 1 0 xl 410230
RU008.06 1/18/2006 4.00r d=speed skating (2006) 1 0 xl 410231
RU009.06 1/22/2006 10.00r issue=The Year of Arm..in the Russian Federation - Joint issue 1 xl 410232
RU010.06 1/26/2006 7.00r issue=50th Anniversary..ch in Antarctica d=Diesel electric ship 1 xl 410233
RU011.06 1/26/2006 7.00r d=IL-76TD and 717S 1 0 xl 410234
RU012.06 1/26/2006 7.00r d=Under Ice research & sledge transport train 1 0 xl 410235
RU013.06 2/16/2006 5.60r issue=175th Anniversary of N.N. Ge 1 xl 410236
RU014.06 2/16/2006 5.60r 1 0 xl 410237
RU015.06 2/27/2006 5.60r issue=150th Anniversary of M.A. Vrubel 1 xl 410238
RU016.06 2/27/2006 5.60r 1 0 xl 410239
RU017.06 2/28/2006 3.00r issue=Centenary of Rus..bmarine Force d=Project 667 A submarine 1 xl 410240
RU018.06 2/28/2006 4.00r d=Project 671 submarine 1 xl 410241
RU019.06 2/28/2006 6.00r d=Project 941 submarine 1 xl 410242
RU020.06 2/28/2006 7.00r d=Project 949A submarine 1 xl 410243
RU021.06 3/6/2006 5.00r issue=200th Anniversary..w Kremlin d=Throne of Ivan the Terrible 1 xl 410244
RU022.06 3/6/2006 5.00r d=Orb of Tsar Michael Fyodorovich 1 0 xl 410245
RU023.06 3/6/2006 5.00r d=Jericho Cap of Tsar Michael Fyodorovich 1 0 xl 410246
RU024.06 3/6/2006 5.00r d=state sword and shield 1 0 xl 410247
RU025.06 3/6/2006 15r d=Cap of Monomakh 1 xl 410248
RU026.06 3/6/2006 20.00r 1 xl 410249
RU027.06 3/6/2006 20.00r d=Throne of Ivan the Terrible 1 0 xl 410250
RU028.06 3/6/2006 20.00r d=Orb of Tsar Michael Fyodorovich 1 0 xl 410251
RU029.06 3/6/2006 20.00r d=Jericho Cap of Tsar Michael Fyodorovich 1 0 xl 410252
RU030.06 3/6/2006 20.00r d=state sword and shield 1 0 xl 410253
RU031.06 3/20/2006 5.00r issue=OKB Planes by A.S. Jakovlev d=AIR-1 1 xl 410254
RU032.06 3/20/2006 5.00r d=Jak-42 1 0 xl 410255
RU033.06 3/20/2006 5.00r d=Jak-54 1 0 xl 410256
RU034.06 3/20/2006 5.00r d=Yak-130 1 0 xl 410257
RU035.06 3/20/2006 5.00r d=Yak-141 1 0 xl 410258
RU036.06 4/4/2006 15r issue=Centenary of Russian State Duma 1 xl 410259
RU037.06 4/12/2006 5.60r d=State Flag of Russian Federation xl 410260
RU038.06 4/20/2006 5.60r d=State Emblem of Russian Federation xl 410261
RU039.06 4/26/2006 5.60r issue=150th Anniversar.. d="The Saint Trinity" by Andrej Rublev 1 xl 410262
RU040.06 4/26/2006 5.60r d="A Girl with Peaches" by V.A. Serov 1 0 xl 410263
RU041.06 4/26/2006 5.60r 1 0 xl 410264
RU042.06 4/26/2006 5.60r 1 0 xl 410265
RU043.06 4/26/2006 15r 1 xl 410266
RU044.06 4/26/2006 15r 1 0 xl 410267
RU045.06 4/26/2006 15r 1 0 xl 410268
RU046.06 4/26/2006 15r 1 0 xl 410269
RU047.06 4/26/2006 15r 1 0 xl 410270
RU048.06 5/4/2006 10.00r issue=Tsar Alexander III 1 xl 410271
RU049.06 5/4/2006 10.00r 1 0 xl 410272
RU050.06 5/4/2006 25r d=Tsar Alexander III 1 xl 410273
RU051.06 5/11/2006 5.00r issue=150th Anniversary of Blagoveschensk 1 xl 410274
RU052.06 5/22/2006 12.00r issue=150th Anniversary of the Baltic Factory 1 xl 410275
RU053.06 5/29/2006 6.00r issue=50th Anniversary of the Olympic Sports complex 1 xl 410276
RU054.06 6/6/2006 7.00r issue=Flora 2006 d=Flower compositions - Summer 1 xl 410277
RU055.06 6/6/2006 7.00r d=Flower compositions - Autumn 1 0 xl 410278
RU056.06 6/6/2006 7.00r d=Flower compositions - Spring 1 0 xl 410279
RU057.06 6/6/2006 7.00r d=Flower compositions - Winter 1 0 xl 410280
RU058.06 6/15/2006 5.00r issue=250th Anniversar..f the Altai Nation to the Russian State 1 xl 410281
RU059.06 6/20/2006 6.00r issue=Russian Regions 2006 d=The Adigheja region 1 xl 410282
RU060.06 6/20/2006 6.00r d=The Vladimir Region 1 0 xl 410283
RU061.06 6/20/2006 6.00r d=The Kostroma Region 1 0 xl 410284
RU062.06 6/20/2006 6.00r d=The Pskov Region 1 0 xl 410285
RU063.06 6/20/2006 6.00r d=The Ryazan Region 1 0 xl 410286
RU064.06 6/20/2006 6.00r d=The Tula Region 1 0 xl 410287
RU065.06 6/29/2006 4.00r issue=circumnavigation.. the Kruzenshtern d=Kruzenshtern (2006) 1 xl 410288
RU066.06 7/12/2006 4.00r issue=75th Anniversary of the State Trust 1 xl 410289
RU067.06 7/17/2006 6.00r issue=200th Birthday o..ortrait of A.A. Ivanov by S.P. Postinov 1 xl 410290
RU068.06 7/17/2006 6.00r d=The Branch 1840-1850 1 0 xl 410291
RU069.06 7/17/2006 5.00r issue=250th Anniversar..ig Palace in Tsarskoe selo. d=Left Wing 2 xl 410292
RU070.06 7/17/2006 6.00r d=Central Part 2 xl 410293
RU071.06 7/17/2006 7.00r d=Right Wing 2 xl 410294
RU072.06 7/24/2006 6.00r issue=150th Anniversar..rait of A.M. Vasnecov by N.D. Kuznetsov 1 xl 410295
RU073.06 7/24/2006 6.00r d=Novodevichiy Nunnery 1 0 xl 410296
RU074.06 8/10/2006 5.00r dt=lighthouses of the ..and White Sea d=Kanisky Lighthouse 1938 xl 410297
RU075.06 8/10/2006 6.00r d=North Kildinsky Lighthouse 1953 xl 410298
RU076.06 8/10/2006 8.00r d=Vajdaghubsky Lighthouse 1966 xl 410299
RU077.06 8/16/2006 15r issue=250th Anniversay of the Russian State Theatre 1 xl 410300
RU078.06 8/29/2006 3.00r issue=Fauna of Sakha Republic (Yakutia) d=Ross's Gull 1 xl 410301
RU079.06 8/29/2006 4.00r d=Grus leucogeranus (2006) 1 xl 410302
RU080.06 8/29/2006 5.00r d=polar bear (Ursus maritimus) 1 xl 410303
RU081.06 8/29/2006 6.00r d=The Yakutian Horse 1 xl 410304
RU082.06 8/29/2006 7.00r d=Rangifer tarandus (2006) (2006) 1 xl 410305
RU083.06 9/5/2006 7.00r issue=International you..Centre for Russian Language Development 1 xl 410306
RU084.06 9/19/2006 5.00r issue=Centenary of the birth of D.S. Likchachev 1 xl 410307
RU085.06 9/22/2006 6.00r issue=World Nature Her..ge in Russia d=West Caucasus - The Alps 1 xl 410308
RU086.06 9/22/2006 7.00r d=West Caucasus - The Mountain River 1 xl 410309
RU087.06 9/22/2006 8.00r d=West Caucasus - The Bison 1 xl 410310
RU088.06 10/5/2006 7.00r issue=75th Anniversary of Regular Telecasting in Russia 1 xl 410311
RU089.06 10/12/2006 7.00r issue=15th Anniversary of Mobile Communications in Russia 1 xl 410312
RU090.06 10/18/2006 8.00r issue=10th Anniversar..ian Federation in the Council of Europe 1 xl 410313
RU091.06 10/18/2006 7.00r issue=165th Anniversary of the Savings Bank of Russia 2 xl 410314
RU092.06 10/18/2006 15r 2 xl 410315
RU093.06 11/9/2006 5.00r issue=15th Anniversary..onwealth in the field of Communications 1 xl 410316
RU094.06 11/29/2006 7.00r d=Ded Moroz's postage stamp xl 410317
RU095.06 12/7/2006 6.00r d=The National Atlas of Russia xl 410318
RU096.06 12/12/2006 7.00r issue=New Year 2007 1 xl 410319
2007
RU001.07 1/15/2007 5.00r issue=150th Anniversary of V.M. Bekhterev 1 xl 410326
RU002.07 1/25/2007 7.00r issue=175th Anniversary of birth of I.I. Shishkin 1 xl 410327
RU003.07 1/25/2007 7.00r d=In the Wild North… 1 0 xl 410328
RU004.07 2/7/2007 10.00r issue=200th Anniversar..itary Order of St George the Triumphant 1 xl 410329
RU005.07 2/7/2007 50r 1 xl 410330
RU006.07 2/9/2007 5.00r issue=100th Anniversary..onomical Academy named by G.V.Plekhanov 1 xl 410331
RU007.07 3/2/2007 7.00r issue=225th Anniversary..f O.A. Kiprensky d=Self Portrait (2007) 1 xl 410332
RU008.07 3/2/2007 7.00r 1 0 xl 410333
RU009.07 3/12/2007 6.50r d=Emblem of the Russian Post Office xl 410334
RU010.07 3/21/2007 6.00r issue=International Polar Year d=Drifting Scientific Stations 1 xl 410335
RU011.07 3/21/2007 7.00r d=Research on Ice Surfaces 1 xl 410336
RU012.07 3/21/2007 8.00r d=Cultural and Natural Heritage of Arctic 1 xl 410337
RU013.07 4/4/2007 8.00r issue=100th anniversary of Arseny Tarkovsky 1 xl 410338
RU014.07 4/4/2007 8.00r issue=75th anniversary of Andrey Tarkovsky 2 xl 410339
RU015.07 4/12/2007 10.00r issue=50th anniversar..=First artificial Earth satellite, 1957 1 xl 410340
RU016.07 4/12/2007 20.00r d=Sergey Korolev 1 xl 410341
RU017.07 4/12/2007 20.00r d=Konstantin Tsiolkovsky (2007) 1 0 xl 410342
RU018.07 4/24/2007 6.50r issue=450th Anniversar..ation of Bashkiria to the Russian State 1 xl 410343
RU019.07 5/11/2007 7.00r issue=175th anniversary of P.P. Chistjakov 1 xl 410344
RU020.07 5/11/2007 7.00r 1 0 xl 410345
RU021.07 5/15/2007 7.00r issue=250th anniversary of V.L. Borovikovsky 1 xl 410346
RU022.07 5/15/2007 7.00r 1 0 xl 410347
RU023.07 5/24/2007 10.00r issue=150th Anniversary of the first Russian postage stamp 1 xl 410348
RU024.07 6/14/2007 5.00r issue=125th Anniversary of Telephone communication in Russia 1 xl 410349
RU025.07 6/15/2007 25r issue=250th Anniversary of the Russian Academy of Arts 1 xl 410350
RU026.07 6/19/2007 5.00r issue=World Stamp Exhibition 2007 1 xl 410351
RU027.07 7/2/2007 12.00r issue=50th Anniversary of Plesetsk Cosmodrome 1 xl 410352
RU028.07 7/12/2007 6.50r issue=300th Anniversar..filiation Khakasia to the Russian State 1 xl 410353
RU029.07 7/25/2007 7.00r issue=100th Anniversary of birth of M.I. Gadzhiev 1 xl 410354
RU030.07 7/25/2007 7.00r issue=100th Anniversary of birth of N.A. Lunin 2 xl 410355
RU031.07 8/14/2007 5.00r issue=175th Anniversary of S.P. Botkin 1 xl 410356
RU032.07 8/21/2007 7.00r issue=Russian Regions 2007 d=Altay region 1 xl 410357
RU033.07 8/21/2007 7.00r d=Vologda redion 1 0 xl 410358
RU034.07 8/21/2007 7.00r d=Irkutsk region 1 0 xl 410359
RU035.07 8/21/2007 7.00r d=The Novosibirsk Region 1 0 xl 410360
RU036.07 8/21/2007 7.00r d=The Orel Region 1 0 xl 410361
RU037.07 8/21/2007 7.00r d=Rostov region 1 0 xl 410362
RU038.07 8/24/2007 12.00r d=50th Anniversary of xl 410363
RU039.07 9/14/2007 12.00r issue=Year of the Russian Language 1 xl 410364
RU040.07 9/26/2007 6.00r issue=Joint issue Russ..s (2007 Russia) d=Gladiolus gandavensis 1 xl 410365
RU041.07 9/26/2007 6.00r d=Iris ensata 1 0 xl 410366
RU042.07 9/26/2007 6.00r d=Rosa hybrida (2007) 1 0 xl 410367
RU043.07 9/26/2007 6.00r d=Nelumbo nucifera (2007) 1 0 xl 410368
RU044.07 10/1/2007 5.00r issue=WWF Endangered species d=Ciconia boyciana (2007) 1 xl 410369
RU045.07 10/1/2007 6.00r d=snow leopard (2007) 1 xl 410370
RU046.07 10/1/2007 7.00r d=Wisent 1 xl 410371
RU047.07 10/25/2007 8.00r issue=The first Native trucks d=AMO-F-15, 1924 1 xl 410372
RU048.07 10/25/2007 8.00r d=GAZ-AA(MM), 1932 1 0 xl 410373
RU049.07 10/25/2007 8.00r d=ZIS-5V, 1942 1 0 xl 410374
RU050.07 10/29/2007 8.00r issue=Year of the Russian Language 1 xl 410375
RU051.07 11/7/2007 6.00r dt=Native Horse Breeds d=Vladimir breed xl 410376
RU052.07 11/7/2007 7.00r d=Orel trotter xl 410377
RU053.07 11/7/2007 7.00r d=Vyatka breed 0 xl 410378
RU054.07 11/7/2007 8.00r d=Don breed xl 410379
RU055.07 12/7/2007 8.00r issue=Happy New Year 2008 1 xl 410380
RU056.07 12/7/2007 8.00r d=High latitude Arctic..derwater bathyscaph “Mir-1” xl 410381
RU057.07 12/7/2007 8.00r d=High latitude Arctic deep-water Expedition - North Pole 0 xl 410382
2008
RU001.08 1/10/2008 6.00r issue=125th Anniversary of birth of A.N. Tolstoy 1 xl 410391
RU002.08 1/10/2008 8.00r issue=150th Anniversary of the first Russian postage stamp 1 xl 410392
RU003.08 1/22/2008 6.00r issue=100th Anniversary of birth of L.D. Landau 1 xl 410393
RU004.08 1/22/2008 6.00r issue=100th Anniversary of birth of I.M. Frank 2 xl 410394
RU005.08 2/1/2008 9.00r issue=250th Anniversary of birth of A. Betankur 1 xl 410395
RU006.08 2/22/2008 9.00r issue=450th Anniversary of Astrakhan 1 xl 410396
RU007.08 3/17/2008 8.00r issue=Centenary of birth of V.P. Glushko 1 xl 410397
RU008.08 3/25/2008 12.00r issue=Archeological Heritage d=Bronze plate - 2nd Century 1 xl 410398
RU009.08 3/25/2008 12.00r d=Bronze plate displaying Oxen 1 0 xl 410399
RU010.08 3/25/2008 12.00r d=Metal plate featuring deer 1 0 xl 410400
RU011.08 4/15/2008 8.00r issue=Olympics 2008 1 xl 410401
RU012.08 4/15/2008 8.00r 1 0 xl 410402
RU013.08 4/15/2008 8.00r 1 0 xl 410403
RU014.08 4/29/2008 15r issue=225th Anniversary of the Black Sea Navy 1 xl 410404
RU015.08 5/5/2008 8.00r issue=Europa 2008 1 xl 410405
RU016.08 5/7/2008 7.00r issue=Dmitry Medvedev e..of Russian Federation on March 2nd 2008 1 xl 410406
RU017.08 5/20/2008 8.00r issue=Russia Regions 2008 d=Volgograd Region 1 xl 410407
RU018.08 5/20/2008 8.00r d=Krasnoyarsk Region 1 0 xl 410408
RU019.08 5/20/2008 8.00r d=Penza Region 1 0 xl 410409
RU020.08 5/20/2008 8.00r d=Sverdlovsk Region 1 0 xl 410410
RU021.08 5/20/2008 8.00r d=Yaroslavl Region 1 0 xl 410411
RU022.08 6/23/2008 12.00r issue=Romania-Russia ..ue d=Vladimir, St. Demetrius' Cathedral 1 xl 410412
RU023.08 6/23/2008 12.00r d=Voronets Monastery 1 0 xl 410413
RU024.08 7/12/2008 5.00r issue=50th Anniversary of Helicopter sports 1 xl 410414
RU025.08 7/25/2008 7.50r d=Pokrovsky Cathedral xl 410415
RU026.08 7/26/2008 15r issue=75th Anniversary of the Russian Northern Navy 1 xl 410416
RU027.08 7/28/2008 7.50r issue=450th Anniversar.. joining the Russian State by Udmurtija 1 xl 410417
RU028.08 7/31/2008 10.00r issue=World Cultural ..hi - Church of Preobrazheniya Gospodnya 1 xl 410418
RU029.08 7/31/2008 10.00r d=Kizhi - Bell Tower of Kizhsky Churchyard 1 0 xl 410419
RU030.08 7/31/2008 10.00r d=Kizhi - Church of Pokrova Presvyatoj Bogoroditsy 1 0 xl 410420
RU031.08 8/8/2008 35r d=Tsar Nicholas I xl 410421
RU032.08 8/28/2008 6.00r issue=International Polar Year 2008 1 xl 410422
RU033.08 8/28/2008 7.00r 1 xl 410423
RU034.08 8/28/2008 8.00r 1 xl 410424
RU035.08 8/29/2008 0.10r issue=2008 d=hare (2008) 1 xl 410425
RU036.08 8/29/2008 0.15r 1 xl 410426
RU037.08 8/29/2008 0.25r 1 xl 410427
RU038.08 8/29/2008 0.30r d=red fox (2008) 1 xl 410428
RU039.08 8/29/2008 0.50r 1 xl 410429
RU040.08 8/29/2008 1.00r 1 xl 410430
RU041.08 8/29/2008 1.50r d=Eurasian Lynx lynx lynx 1 xl 410431
RU042.08 8/29/2008 2.00r d=lynx 1 xl 410432
RU043.08 8/29/2008 2.50r 1 xl 410433
RU044.08 8/29/2008 3.00r d=elk (2008) 1 xl 410434
RU045.08 8/29/2008 4.00r 1 xl 410435
RU046.08 8/29/2008 5.00r 1 xl 410436
RU047.08 8/29/2008 6.00r d=bear 1 xl 410437
RU048.08 8/29/2008 10.00r 1 xl 410438
RU049.08 8/29/2008 25r 1 xl 410439
0850
RU051.08 9/12/2008 7.00r issue=Flora and Fauna - Forest and it's Inhabitants 1 xl 410441
RU052.08 9/12/2008 7.00r 1 0 xl 410442
RU053.08 9/12/2008 7.00r 1 0 xl 410443
RU054.08 9/17/2008 8.00r d=Russia Regions - Leningrad region xl 410444
RU055.08 9/17/2008 10.00r issue=History of the Russian Cossacks 1 xl 410445
RU056.08 9/17/2008 10.00r 1 0 xl 410446
RU057.08 9/17/2008 10.00r 1 0 xl 410447
RU058.08 10/2/2008 7.00r issue=Kamov's Helicopters d=Ka-32 1 xl 410448
RU059.08 10/2/2008 7.00r d=Ka-226 1 0 xl 410449
RU060.08 10/15/2008 7.00r issue=World Natural Heritage - Central Sikhote-Alinj 1 xl 410450
RU061.08 10/15/2008 8.00r 1 xl 410451
RU062.08 10/15/2008 9.00r 1 xl 410452
RU063.08 11/13/2008 10.00r issue=15th Anniversa..eral Assembly of the Russian Federation 1 xl 410453
RU064.08 11/13/2008 10.00r issue=15th Anniversa..eral Assembly of the Russian Federation 2 xl 410454
RU065.08 11/28/2008 6.00r dt=bridges (2008) d=Zhivopisnyi Bridge across Moscow River xl 410455
RU066.08 11/28/2008 7.00r d=Bridge across River Volga xl 410456
RU067.08 11/28/2008 8.00r d=Bridge across River Obj xl 410457
RU068.08 11/28/2008 9.00r d=Bolshoj Obukhovsky Bridge across River Neva xl 410458
RU069.08 12/5/2008 8.00r issue=100th Anniversary of the Shuvalov Swimming School 1 xl 410459
RU070.08 12/5/2008 8.00r issue=Russia, 2008 Ice Hockey World Champion 2 xl 410460
RU071.08 12/11/2008 7.00r dt=bicycles (2008) d=Collapsible military model bicycle xl 410461
RU072.08 12/11/2008 7.00r d=Racing track bicycle GM-30, 1938 0 xl 410462
RU073.08 12/11/2008 7.00r d=Bicycle ZiCh-1, 1946 0 xl 410463
RU074.08 12/11/2008 7.00r d=Travel Woman's bicycle V-22, 1954 0 xl 410464
RU075.08 12/18/2008 7.50r issue=New Year 2009 d..orks & Spasskaya Tower & arms of Russia 2 xl 410465
RU076.08 12/18/2008 7.50r issue=Decorative Art ..Dagestan d=Kerchief chain with pendants 1 xl 410466
RU077.08 12/18/2008 7.50r d=Head adornment 1 0 xl 410467
RU078.08 12/18/2008 7.50r d=Sewn on pendant from the wedding head-dress 1 0 xl 410468
RU079.08 12/18/2008 7.50r d=dagger in a sheath 1 0 xl 410469
2009
RU001.09 1/17/2009 9r issue=Russian Regions 2009 d=Voronezh Region 1 xl 410480
RU002.09 1/17/2009 9.00r d=Chelyabinsk Region 1 0 xl 410481
RU003.09 1/17/2009 9.00r d=Saratov Region 1 0 xl 410482
RU004.09 1/19/2009 10.00r issue=50th Anniversary of the Cuban Revolution 1 xl 410483
RU005.09 1/22/2009 7.00r issue=300th Anniversary of the Central Navy Museum 1 xl 410484
RU006.09 1/28/2009 9.00r issue=175th Anniversary of the Birth of V.G. Perov 1 xl 410485
RU007.09 1/28/2009 9.00r 1 0 xl 410486
RU008.09 2/6/2009 15r issue=175th Anniversary of the Birth of D.I. Mendeleev 1 xl 410487
RU009.09 2/16/2009 10.00r issue=75th Anniversary of the Birth of G.Y. Bahchivangi 1 xl 410488
RU010.09 3/6/2009 10.00r issue=75th Anniversary of the Birth of U.A. Gagarin 1 xl 410489
RU011.09 3/16/2009 20.00r issue=150th Anniversary of the Birth of A.S. Popov 1 xl 410490
RU012.09 4/1/2009 15r issue=200th Anniversary of the Birth of N.V. Gogol d=N.V. Gogol 1 xl 410491
RU013.09 4/1/2009 6.00r 1 xl 410492
RU014.09 4/1/2009 7.00r 1 xl 410493
RU015.09 4/1/2009 8.00r 1 xl 410494
RU016.09 4/1/2009 9.00r 1 xl 410495
RU017.09 4/27/2009 7.00r issue=65th Anniversary..40), Simonov's automatic rifle (ARS-36) 1 xl 410496
RU018.09 4/27/2009 8.00r d=Nagan's revolver, Tokarev's pistol 1 xl 410497
RU019.09 4/27/2009 9.00r d=Sudaev's pistol-mach.. Shpagin's pistol machine gun (PGSh-41) 1 xl 410498
RU020.09 4/27/2009 10.00r d=Degtyarov's manual ..), Goryunov's easel machine gun (EG-43) 1 xl 410499
RU021.09 5/5/2009 9.00r issue=Europa 2009 1 xl 410500
RU022.09 5/15/2009 8.00r issue=175th Anniversar..logical Service in Russia d=A.Y. Kupfer 1 xl 410501
RU023.09 5/15/2009 9.00r d=Satellite map 1 xl 410502
RU024.09 5/21/2009 35r issue=300th Anniversary of the Birth of Ekaterina I Alekseevna 1 xl 410503
RU025.09 6/2/2009 7.00r issue=400th Anniversary..he Kalmyk people into the Russian State 1 xl 410504
RU026.09 6/18/2009 7.00r issue=50th Anniversary of Nuclear Russian Navy 1 xl 410505
RU027.09 6/18/2009 8.00r 1 xl 410506
RU028.09 6/18/2009 9.00r 1 xl 410507
RU029.09 6/18/2009 10.00r 1 xl 410508
RU030.09 6/26/2009 30r issue=300th Anniversary of Poltava Battle 1 xl 410509
RU031.09 6/27/2009 8.00r issue=2009 - Year of Youth 1 xl 410510
RU032.09 7/7/2009 9.00r issue=Russian Regions 2009 d=Ingushetia Region 1 xl 410511
RU033.09 7/7/2009 9.00r d=Tomsk Region 1 0 xl 410512
RU034.09 7/7/2009 9.00r d=Chechnya Region 1 0 xl 410513
RU035.09 7/10/2009 5.00r issue=100th Anniversar..h of M.L. Mil dt=Mil helicopters d=Mi-1 1 xl 410514
RU036.09 7/10/2009 6.00r d=Mi-4 (2009) 1 xl 410515
RU037.09 7/10/2009 7.00r d=Mi-8 helicopter (2008) 1 xl 410516
RU038.09 7/10/2009 8.00r d=Mi-34 1 xl 410517
RU039.09 7/10/2009 9.00r d=Mi-28 1 xl 410518
RU040.09 7/15/2009 9.00r issue=125th Anniversary of the Birth of Z.E. Sereryakova 1 xl 410519
RU041.09 7/15/2009 9.00r 1 0 xl 410520
RU042.09 7/17/2009 7.00r issue=100th Anniversar..A. Gromyko d=A.A. Gromyko (2009 Russia) 1 xl 410521
RU043.09 7/27/2009 12.00r issue=World Cultural Heritage in Russia - Solovetsky Islands 1 xl 410522
RU044.09 7/27/2009 12.00r 1 0 xl 410523
RU045.09 7/27/2009 12.00r 1 0 xl 410524
RU046.09 7/27/2009 12.00r 1 0 xl 410525
RU047.09 8/6/2009 6.60r d=Symbol of St Petersburg - Ship of Admiralty steeple xl 410526
RU048.09 8/6/2009 9.00r d=Symbol of Moscow - St George the Victorious xl 410527
RU049.09 8/12/2009 6.00r dt=bridges (2009) d=Sartakov Bridge xl 410528
RU050.09 8/12/2009 7.00r d=Bridge across Irtysh River xl 410529
RU051.09 8/12/2009 8.00r d=Viaduct across Matsesta River valley xl 410530
RU052.09 8/12/2009 9.00r d=Bridge across Don River xl 410531
RU053.09 8/24/2009 10.00r issue=Cities of Military Glory 2009 d=Belgorod 1 xl 410532
RU054.09 8/24/2009 10.00r d=Kursk 1 0 xl 410533
RU055.09 8/24/2009 10.00r d=Oryol 1 0 xl 410534
RU056.09 8/24/2009 10.00r d=Polyarny 1 0 xl 410535
RU057.09 8/24/2009 10.00r d=Rzhev 1 0 xl 410536
RU058.09 9/4/2009 50r issue=1150th Anniversary of the Foundation of Velikiy Novgorod 1 xl 410537
RU059.09 9/15/2009 10.00r issue=History of the Russian Cossacks d=Ermak Timofeevich 1 xl 410538
RU060.09 9/15/2009 10.00r d=Semyon Ivanovich Dezhnyov 1 0 xl 410539
RU061.09 9/15/2009 10.00r d=Matvey Ivanovich Platonov 1 0 xl 410540
RU062.09 9/23/2009 9.00r issue=Culture of Russi.. Middle of XIX Century, Moscow District 1 xl 410541
RU063.09 9/23/2009 9.00r d=National Head dress .. XIX Century, Nizhniy Novgorod Province 1 0 xl 410542
RU064.09 9/23/2009 9.00r d=National Head dress ..ddle of XIX Century, Yaroslavl Province 1 0 xl 410543
RU065.09 9/23/2009 9.00r d=National Head dress .. XIX Century, Men's Hat, Tver' Province 1 0 xl 410544
RU066.09 10/1/2009 1.00r issue=2009 dt=Russian Kremlins d=Astrakhan Kremlin 1 xl 410545
RU067.09 10/1/2009 1.50r d=Zaraisk Kremlin 1 xl 410546
RU068.09 10/1/2009 2.00r d=Kazan Kremlin 1 xl 410547
RU069.09 10/1/2009 2.50r d=Kolomna Kremlin 1 xl 410548
RU070.09 10/1/2009 3.00r d=Rostov Kremlin 1 xl 410549
RU071.09 10/1/2009 4.00r d=Nizhniy Novgorod Kremlin 1 xl 410550
RU072.09 10/1/2009 5.00r d=Novgorod Kremlin 1 xl 410551
RU073.09 10/1/2009 6.00r d=Pskov Kremlin 1 xl 410552
RU074.09 10/1/2009 10.00r d=Moscow Kremlin (2009) 1 xl 410553
RU075.09 10/1/2009 25r d=Ryazan Kremlin 1 xl 410554
RU076.09 10/1/2009 50r d=Tobolsk Kremlin (2009) 1 xl 410555
RU077.09 10/1/2009 100r d=Tula Kremlin 1 xl 410556
RU078.09 10/7/2009 10.00r issue=United Nations Food Programme 1 xl 410557
RU079.09 10/14/2009 10.00r issue=200th Anniversary of the Birth of Vladimir Istomin 1 xl 410558
RU080.09 10/22/2009 9.00r issue=Road Safety 2009 1 xl 410559
RU081.09 10/29/2009 9.00r issue=75th Anniversary of the rank of the Hero of Soviet Union 1 xl 410560
RU082.09 11/6/2009 40r issue=300th Anniversary ..Elizaveta Petrovna d=Elizaveta Petrovna 1 xl 410561
RU083.09 11/9/2009 9.00r issue=200th Anniversary of the Transport Department of Russia 1 xl 410562
RU084.09 11/25/2009 10.00r issue=200th Annivers..tre School named after Mikhail Schepkin 1 xl 410563
RU085.09 11/30/2009 15r issue=50th Anniversary of the Antarctic Treaty 1 xl 410564
RU086.09 12/1/2009 10.00r issue=New Year 2010 1 xl 410565
RU087.09 12/10/2009 9.00r issue=50th Anniversary of the Strategic Rocket Forces 1 xl 410566
RU088.09 12/15/2009 9.00r dt=fountains of Russia d=Verkhnyaya Pyshma xl 410567
RU089.09 12/15/2009 10.00r d=Nizhniy Novgorod xl 410568
RU090.09 12/15/2009 12.00r d=Novyj Urengoj xl 410569
RU091.09 12/15/2009 15r xl 410570
2010
RU001.10 2/27/2010 0.10r issue=2010 d=hare (2010) 1 xl 410589
RU002.10 2/27/2010 0.15r 1 xl 410590
RU003.10 2/27/2010 0.25r 1 xl 410591
RU004.10 2/27/2010 0.30r d=fox (2010) 1 xl 410592
RU005.10 2/27/2010 0.50r 1 xl 410593
RU006.10 2/27/2010 1.00r 1 xl 410594
RU007.10 2/27/2010 1.50r d=lynx 1 xl 410595
RU008.10 2/27/2010 2.00r 1 xl 410596
RU009.10 2/27/2010 2.50r 1 xl 410597
RU010.10 2/27/2010 3.00r d=elk (2010) 1 xl 410598
RU011.10 2/27/2010 4.00r 1 xl 410599
RU012.10 2/27/2010 5.00r 1 xl 410600
RU013.10 2/27/2010 6.00r d=bear 1 xl 410601
RU014.10 2/27/2010 10.00r 1 xl 410602
RU015.10 2/27/2010 25r 1 xl 410603
RU016.10 1/14/2010 10.00r issue=100th Anniversary of the Birth of Valentina Grizodubova 1 xl 410581
RU017.10 1/14/2010 10.00r issue=100th Anniversary of the Birth of Anatoly Serov 2 xl 410582
RU018.10 1/29/2010 20.00r issue=150th Anniversa..of Anton Chekhov d=Anton Chekhov (2010) 1 xl 1544614
RU019.10 1/29/2010 8.00r d=The lady with the dog 1899 1 xl 410584
RU020.10 1/29/2010 10.00r d=The seagull 1896 1 xl 410585
RU021.10 1/29/2010 12.00r d=the House with the mezzanine 1896 1 xl 410586
RU022.10 2/5/2010 10.00r issue=50th Anniversary..eoples' Friendship University of Russia 1 xl 410587
RU023.10 2/11/2010 15r issue=Winter Olympics 2010 1 xl 410588
RU024.10 3/19/2010 10.50r issue=275th Anniversa..otov d=Portrait of Knyazh D.M. Golitsyn 1 xl 410604
RU025.10 3/19/2010 10.50r d=Portrait of Countess E.A. Musina-Pushkina 1 0 xl 410605
RU026.10 3/24/2010 10.50r issue=Regions of Russia 2010 d=Orenburg region 1 xl 410606
RU027.10 3/24/2010 10.50r d=Republic of Tyva 1 0 xl 410607
RU028.10 4/9/2010 12.00r issue=100th Anniversary of Birth of Eugeny Feodorov 1 xl 410608
RU029.10 4/30/2010 10.00r issue=Cities of Military Glory 2010 d=Malgobek 1 xl 410614
RU030.10 4/30/2010 10.00r d=Elnya 1 0 xl 410615
RU031.10 4/30/2010 10.00r d=Elets 1 0 xl 410616
RU032.10 4/30/2010 10.00r d=Voronezh 1 0 xl 410617
RU033.10 4/30/2010 10.00r d=Luga 1 0 xl 410618
RU034.10 4/20/2010 9.00r issue=65th Anniversary..dt=Soviet tanks of the war d=Tank BT-7M 1 xl 410609
RU035.10 4/20/2010 10.00r d=Tank T-70 1 xl 410610
RU036.10 4/20/2010 11.00r d=T-34-85 1 xl 410611
RU037.10 4/20/2010 12.00r d=Tank IS-2 1 xl 410612
RU038.10 4/26/2010 50r issue=65th Anniversary of Victory in the Great Patriotic War 1 xl 1544615
RU039.10 5/5/2010 10.50r issue=Europa 2010 1 xl 410619
RU040.10 5/18/2010 7.70r issue=300th Anniversar..yrillic Alphabet - First Civil alphabet 1 xl 410620
RU041.10 5/18/2010 50r issue=500th Anniversary of Ivan Feodorov 2 xl 1544616
RU042.10 5/28/2010 6.00r dt=watches (2010) d=wooden pocket watch xl 410622
RU043.10 5/28/2010 9.00r d=watch xl 410623
RU044.10 5/28/2010 12.00r xl 410624
RU045.10 5/28/2010 15r xl 410625
RU046.10 6/7/2010 10.50r issue=275th Anniversar.. Dmitry Levitsky d=Self Portrait (2010) 1 xl 410626
RU047.10 6/7/2010 10.50r d=Portrait of G.I. Alymova 1 0 xl 410627
RU048.10 6/8/2010 25r d=Valaam xl 1544617
RU049.10 6/18/2010 15r issue=300th Anniversary ..Foundation of Tsarkoe Selo d=Egypt Gate 1 xl 410629
RU050.10 6/18/2010 15r d=Monument of A.S. Pushkin 1 0 xl 410630
RU051.10 6/18/2010 15r d=Alexander Palace 1 0 xl 410631
RU052.10 6/28/2010 15r issue=Russia-Serbia joint issue d=Mother of God Odigitrija 1 xl 410632
RU053.10 6/28/2010 15r d=Roublyvov Archangel Mikhail 1 0 xl 410633
RU054.10 7/2/2010 15r issue=150th Anniversary of Vladivostok 1 xl 410634
RU055.10 7/14/2010 10.50r issue=Regions of Russia 2010 d=Jewish Autonomous Region 1 xl 410635
RU056.10 7/14/2010 10.50r d=Bryansk Region 1 0 xl 410636
RU057.10 7/26/2010 15r issue=World Cultural Her..d=Curonian Spit - Dunes and Forest view 1 xl 410637
RU058.10 7/26/2010 15r d=Curonian Spit - Dunes 1 0 xl 410638
RU059.10 7/30/2010 11.00r issue=Culture of Peop..of the Republic of Tatarstan d=Kattashi 1 xl 410639
RU060.10 7/30/2010 11.00r d=Skullcap 1 0 xl 410640
RU061.10 7/30/2010 11.00r d=Maiden kalfak 1 0 xl 410641
RU062.10 7/30/2010 11.00r d=Kamchat burek 1 0 xl 410642
RU063.10 8/2/2010 30r d=Ensemble of the Ferapontov Monastery xl 1544621
RU064.10 8/12/2010 12.00r issue=125th Anniversary of Birth of N.N. Zubov 1 xl 410644
RU065.10 8/20/2010 12.00r issue=History of Russian Cossacks 2010 1 xl 410645
RU066.10 8/20/2010 12.00r 1 0 xl 410646
RU067.10 8/20/2010 12.00r 1 0 xl 410647
RU068.10 8/27/2010 7.70r d=arms of Vladivostok xl 410648
RU069.10 8/27/2010 10.50r d=arms of Yaroslavl xl 410649
RU070.10 8/30/2010 25r issue=150th Anniversary .. Isaak Levitan d=Fresh Wind, by Levitan 1 xl 1544622
RU071.10 9/2/2010 15r issue=65th Anniversary of the End of the Second World War 1 xl 410651
RU072.10 9/10/2010 10.50r issue=75th Anniversary of Birth of German Titov 1 xl 410652
RU073.10 9/10/2010 50r issue=100th Anniversary of Yaroslavl 2 xl 410653
RU074.10 9/15/2010 9.00r dt=bridges (2010) d=Ju..ee Bridge over river Volga in Yaroslavl xl 410654
RU075.10 9/15/2010 10.00r d=Viaduct over valley of the River Matsesta in Sochi xl 410655
RU076.10 9/15/2010 11.00r d=Bridge across the M..he village Khlebnikovo in Moscow region xl 410656
RU077.10 9/15/2010 12.00r d=Bridge across Kola Bay in Murmansk xl 410657
RU078.10 9/22/2010 10.00r issue=150th Anniversary of the Bank of Russia 1 xl 410658
RU079.10 9/22/2010 15r 1 xl 410659
RU080.10 9/22/2010 20.00r 1 xl 410660
RU081.10 9/22/2010 25r 1 xl 410661
RU082.10 10/5/2010 10.50r issue=2010 - Year of the Teacher 1 xl 410662
RU083.10 10/14/2010 12.00r issue=All-Russian Population Census 1 xl 410663
RU084.10 10/21/2010 15r issue=Joint issue Russia - Kazakhstan - Chokan Valikhanov 1 xl 410664
RU085.10 10/29/2010 10.00r issue=50th Anniversa..f the Space flight of Belka and Strelka 1 xl 410665
RU086.10 11/1/2010 10.50r issue=Regions of Russia 2010 d=Kursk Region 1 xl 410666
RU087.10 11/1/2010 10.50r d=Khanty-Mansiysk 1 0 xl 410667
RU088.10 11/10/2010 12.00r issue=50 Years of Vi..viet Union in the European Cup Football 1 xl 410668
RU089.10 11/25/2010 20.00r issue=200th Annivers..th of Nikolay Pirogov d=Nikolay Pirogov 1 xl 1544624
RU090.10 11/29/2010 15r issue=100th Anniversary of the Kachin Military Aviation College 1 xl 410670
RU091.10 12/1/2010 10.50r issue=New Year 2011 1 xl 410671
2011
RU001.11 1/25/2011 12r issue=Mstislav Keldysh 100th d=Mstislav Keldysh 1 xl 215488
RU002.11 2/21/2011 40r issue=Joint issue Russia.. Anniversary of Foundation of Mariehamn 1 xl 215489
RU003.11 3/30/2011 11.80r dt=Russian regions d=Tyumen Region xl 215490
RU004.11 3/30/2011 11.80r d=Tambov Region 0 xl 215491
RU005.11 3/30/2011 11.80r d=Novgorod Region 0 xl 215492
RU006.11 4/12/2011 50r issue=50th Anniversary of the First Human Spaceflight 1 xl 215493
RU007.11 4/20/2011 12r issue=Cities of Military Glory 2011 d=Vyborg 1 xl 453023
RU008.11 4/20/2011 12r d=Rostov on Don 1 0 xl 453025
RU009.11 4/20/2011 12r d=Tuapse 1 0 xl 453026
RU010.11 4/20/2011 12r d=Vladikavkaz 1 0 xl 453027
RU011.11 4/20/2011 12r d=Veliky Novgorod 1 0 xl 453028
RU012.11 4/20/2011 12r d=Velikiye Luki 1 0 xl 453029
RU013.11 4/27/2011 8.50r issue=50th Anniversary of the Russian Peace Foundation 1 xl 215501
RU014.11 4/29/2011 9.00r issue=Weapons of Victory 2011 d=Yak-3 1 xl 215502
RU015.11 4/29/2011 10.00r d=La-5 fighter 1 xl 215503
RU016.11 4/29/2011 11.00r d=Il-2 1 xl 215504
RU017.11 4/29/2011 12r d=Pe-2 1 xl 215505
RU018.11 5/5/2011 15r issue=Europa 2011 dt=forests (2011 Russia) 1 xl 215506
RU019.11 5/16/2011 9.00r issue=Monuments of Sci..ding clocks d=Central Telegraph, Moscow 1 xl 215507
RU020.11 5/16/2011 12r d=Admiralty Building, St. Petersburg 1 xl 215508
RU021.11 5/16/2011 15r d=Lomonosov Moscow State University 1 xl 215509
RU022.11 5/16/2011 25r d=Railway Station, Sochi 1 xl 215510
RU023.11 5/17/2011 12r issue=Shelkin 100th d=K.I. Shelkin 1 xl 215511
RU024.11 5/26/2011 11.80r d=arms of Komi Republic xl 215512
RU025.11 5/26/2011 8.50r d=arms of Irkutsk xl 215513
RU026.11 5/26/2011 15r issue=Joint issue of the..o d=Kazansky cathedral in St-Petersburg 1 1 xl 215514
RU027.11 5/26/2011 15r d=Russian diplomatic mission in Tsetine 1 2 xl 215515
RU028.11 6/1/2011 12r issue=Joint issue of the ..d the Republic of Armenia d=V.Y. Brusov 1 xl 215516
RU029.11 6/1/2011 12r d=O.T. Tumanyan 1 0 xl 215517
RU030.11 6/20/2011 12r issue=Venezuela independence 200th d=flag of Venezuela (2011) 1 xl 215518
RU031.11 6/26/2011 15r issue=Irkutsk 350th d=Irkutsk & arms of Irkutsk 1 xl 1544630
RU032.11 6/27/2011 11.80r issue=350th Anniversa..y joining the Russian State by Buryatia 1 xl 215520
RU033.11 6/27/2011 15r issue=75th Anniversary o..obile Inspectorate of the MOI of Russia 2 xl 215521
RU034.11 7/1/2011 50r d=The Order of Saint Andrew the First-Called xl 215522
RU035.11 7/29/2011 25r d=Pechora-Ilych Nature Reserve - The Manpupuner Plateau xl 215523
RU036.11 8/1/2011 10.00r issue=Historical and C..Folk Art d=Chapel of StMacarius XVIII c 1 xl 215524
RU037.11 8/1/2011 15r d=Ascension Church XVII c 1 xl 215525
RU038.11 8/1/2011 20.00r d=Wind mill XX c 1 xl 215526
RU039.11 8/15/2011 9.00r dt=pedestrian bridges d=Pochtamsky Bridge across Moika River xl 215527
RU040.11 8/15/2011 10.00r d=Patriarshy Bridge across Moscow River xl 215528
RU041.11 8/15/2011 12r d=Bridge across River Kena xl 215529
RU042.11 8/15/2011 15r d=Bridge across River Vezelka xl 215530
RU043.11 8/29/2011 15r issue=History of the Russian Cossacks d=Amur Cossack Army 1 1 xl 215531
RU044.11 8/29/2011 15r d=Astrakhan Cossack Army 1 2 xl 215532
RU045.11 8/29/2011 15r d=Volga Cossack Army 1 3 xl 215533
RU046.11 9/1/2011 15r dt=cavaliers of the Order of St Andrew d=D.S. Likhachev xl 215534
RU047.11 9/1/2011 15r d=B.V. Petrovsky 0 xl 215535
RU048.11 9/1/2011 15r d=Lyudmila Zykina 0 xl 215536
RU049.11 9/9/2011 15r issue=250th Anniversary o..arclay de Tolly d=M.B. Barclay de Tolly 1 xl 215537
RU050.11 9/12/2011 14r dt=contemporary Russian art d=Modern art Sea landscape 1 xl 215538
RU051.11 9/12/2011 14r d=Modern art View of Borisoglebsky monastery 2 xl 215539
RU052.11 9/12/2011 14r d=Modern art Gymnasts of the USSR 3 xl 215540
RU053.11 9/12/2011 14r d=Modern art Aidan 4 xl 215541
RU054.11 9/12/2011 14r d=Modern art Monument to Yury Nikulin 5 xl 215542
RU055.11 9/12/2011 14r d=Modern art Village Akinshino 6 xl 215543
RU056.11 9/13/2011 50r d=World Cultural Heritag.. City and Fortress Buildings of Derbent xl 215544
RU057.11 9/15/2011 12r dt=headdresses of the Russian North d=Winter Hat xl 215545
RU058.11 9/15/2011 12r d=Maiden Fillet 0 xl 215546
RU059.11 9/15/2011 12r d=Povoy 0 xl 215547
RU060.11 9/15/2011 12r d=Wiglet 0 xl 215548
RU061.11 9/26/2011 15r issue=50th Anniversary o.. d=Ailuropoda melanoleuca (2011 Russia) 1 xl 215549
RU062.11 9/30/2011 9.00r issue=Innovative Technologies 1 xl 215550
RU063.11 10/10/2011 12r d=Regional Commonwealth in the field of Communications 1991-2011 xl 215551
RU064.11 10/14/2011 15r issue=300th Anniversary of Plant Arsenal d=field cannon 1 xl 215552
RU065.11 10/21/2011 50r issue=300th Anniversary of Moscow Head Post Office 1 xl 215553
RU066.11 10/21/2011 11.80r 1 xl 215554
RU067.11 10/21/2011 11.80r 1 0 xl 215555
RU068.11 10/21/2011 11.80r 1 0 xl 215556
RU069.11 10/21/2011 11.80r 1 0 xl 215557
RU070.11 10/24/2011 12r issue=50th Anniversary of the Kremlin Palace of Congresses 1 xl 453127
RU071.11 10/27/2011 12r issue=The Constitutiona..urt of the Russian Federation 1991-2011 1 xl 453126
RU072.11 10/28/2011 12r issue=200th Anniversary of the use of Gas in russia 1 xl 215560
RU073.11 11/3/2011 11.80r issue=Commonwealth of Independent States 20th 1 xl 215561
RU074.11 11/17/2011 100r issue=300th Anniversar..h of M.V. Lomonosov d=Mikhail Lomonosov 1 xl 215562
RU075.11 11/21/2011 45r issue=150th Anniversary of the Birth of K.A. Korovin 1 xl 215563
RU076.11 11/25/2011 8.50r issue=225th Anniversary of the Insurance industry in Russia 1 xl 215564
RU077.11 4/17/2011 11.80r dt=Russian regions d=Kaluga Region xl 453136
RU078.11 12/1/2011 20.00r issue=New Year 2012 1 xl 215565
RU079.11 12/10/2011 15r xl 215566
RU080.11 12/12/2011 15r issue=lace 2011 dt=lace (2011) 1 xl 215567
RU081.11 12/12/2011 15r 1 0 xl 215568
RU082.11 12/12/2011 15r 1 0 xl 215569
RU083.11 12/12/2011 15r 1 0 xl 215570
RU084.11 12/12/2011 11.80r dt=Russian regions d=Omsk Region xl 215571
2012
RU001.12 2/1/2012 50r issue=300th Anniversary of Tula Arms Plant 1 xl 410681
RU002.12 2/8/2012 15r dt=whales (2012 Russia) d=Orcinus orca (2012) xl 410682
RU003.12 2/8/2012 20.00r d=Megaptera novaeangliae (2012) xl 410683
RU004.12 2/13/2012 15r issue=125th Anniversary of P.N. Nesterov d=P.N. Nesterov 1 xl 410684
RU005.12 2/27/2012 45r xl 410685
RU006.12 3/2/2012 25r dt=State Awards of the Russian Federation d=Gold Star Medal 1 xl 410686
RU007.12 3/2/2012 25r d=Order For Merit to the Fatherland 1st Class 3 xl 410687
RU008.12 3/2/2012 25r d=Order of Saint George 1st Class 2 xl 410688
RU009.12 3/21/2012 15r issue=Centenary of Birth of M.I. Raskova d=M.I. Raskova 1 xl 410689
RU010.12 4/6/2012 15r issue=150th Anniversary of P.A. Stolypin d=P.A. Stolypin 1 xl 410690
RU011.12 4/16/2012 10.00r issue=Weapons of Victory 2012 dt=weapons of Victory d=GAZ-AA 1 xl 410691
RU012.12 4/16/2012 12.00r d=ZIS-5V 1 xl 410692
RU013.12 4/16/2012 14r d=GAZ-67B 1 xl 410693
RU014.12 4/16/2012 15r d=GAZ-M1 1 xl 410694
RU015.12 4/20/2012 15r issue=Cities of Military Glory 2012 d=Pskov 1 1 xl 410695
RU016.12 4/20/2012 15r d=Vyazma 1 2 xl 410696
RU017.12 4/20/2012 15r d=Narofominsk 1 3 xl 410697
RU018.12 4/20/2012 15r d=Tver 1 4 xl 410698
RU019.12 4/20/2012 15r d=Kronstadt 1 5 xl 410699
RU020.12 4/20/2012 15r d=Dmitrov 1 6 xl 410700
RU021.12 4/26/2012 10.00r issue=Association of Veterans of Combat Operations of Russia 1 xl 410701
RU022.12 5/4/2012 15r issue=Europa 2012 1 xl 410702
RU023.12 5/7/2012 15r issue=V.V. Putin takes ch..as President of Russian Federation 2012 1 xl 410703
RU024.12 5/7/2012 15r issue=Heroes of the Russi.. the Russian Federation d=V.V. Zamaraev 2 1 xl 410704
RU025.12 5/7/2012 15r d=A.V. Putsykin 2 2 xl 410705
RU026.12 5/7/2012 15r d=D.A. Razumovsky 2 3 xl 410706
RU027.12 5/7/2012 15r d=A.B. Tsydenzhapov 2 4 xl 410707
RU028.12 5/7/2012 15r d=I.Y. Yanina 2 5 xl 410708
RU029.12 5/17/2012 30r issue=150th Anniversary of birth of M.V. Nesterov 1 xl 410709
RU030.12 5/29/2012 15r issue=175th Anniversary of birth of I.N. Kramskoy d=I.N. Kramskoy 1 1 xl 410710
RU031.12 5/29/2012 15r d=INKramskoy An Unknown Lady 1883 1 2 xl 410711
RU032.12 6/4/2012 30r xl 410712
RU033.12 6/4/2012 30r 0 xl 410713
RU034.12 6/6/2012 13r issue=75th Anniversary of..st Non-Stop flight above the North Pole 1 xl 410714
RU035.12 6/14/2012 9.20r d=The Monument to K. Minin and D. Pozharsky in Moscow xl 410715
RU036.12 6/14/2012 13r d=Triumphal Arch in Moscow xl 410716
RU037.12 6/25/2012 13r issue=Joint issue of Bel..orthern crested newt Triturus cristatus 1 1 xl 410717
RU038.12 6/25/2012 13r d=smooth newt Lissotriton vulgaris 1 2 xl 410718
RU039.12 6/26/2012 15r xl 410719
RU040.12 6/29/2012 15r dt=Cavaliers of St Andrew Order d=Patriarch Alexy II 1 xl 410720
RU041.12 6/29/2012 15r d=I.K. Archipova 2 xl 410721
RU042.12 6/29/2012 15r d=V.I. Shumakov 3 xl 410722
RU043.12 7/4/2012 30r issue=1050th Anniversary of Belozersk 2 xl 410723
RU044.12 7/4/2012 30r issue=1150th Anniversary of Izborsk 1 xl 410724
RU045.12 7/6/2012 13r xl 410725
RU046.12 7/17/2012 13r issue=Joint issue Russia.. Spain d=Episcopal Palace Astorga Spain 1 2 xl 410727
RU047.12 7/17/2012 13r d=Cathedral of the Saviour on Blood 1 1 xl 410728
RU048.12 7/20/2012 13r issue=1000th Anniversary..ple to the Nations of the Russian State 1 xl 410729
RU049.12 7/29/2012 15r dt=Contemporary Art of R..Monument to Fyodor Chaliapin Kazan 1999 1 xl 410730
RU050.12 7/29/2012 15r d=ANKovalchuk Mammoths Khanty-Mansiysk 2007 2 xl 410731
RU051.12 7/29/2012 15r d=GALeman Warm Day 1996 3 xl 410732
RU052.12 7/29/2012 15r d=VINesterenko Russian Madonna 2005 4 xl 410733
RU053.12 7/29/2012 15r d=AISuhovetsky Autumn Interior 1992 5 xl 410734
RU054.12 7/29/2012 15r d=SAGavrilyachenko Cossack farewell Stapedius 1999 6 xl 410735
RU055.12 7/6/2012 12.00r xl 410726
RU056.12 8/2/2012 13r issue=100th Anniversary o..f Knapsack Parachute by G.E. Kotelnikov 1 xl 410736
RU057.12 8/7/2012 9.20r issue=125th Anniversary of F.A. Zander 1 xl 410737
RU058.12 8/10/2012 15r issue=100th Anniversary of the Air Force of Russia 1 xl 410738
RU059.12 8/20/2012 30r issue=1150th Anniversary of Rostov 1 xl 410739
RU060.12 8/22/2012 15r issue=History of Russian Cossacks d=Yenisey Cossack Army 1 1 xl 410740
RU061.12 8/22/2012 15r d=Orenburg Cossack Army 1 2 xl 410741
RU062.12 8/22/2012 15r d=Ussuri Cossack Army 1 3 xl 410742
RU063.12 8/27/2012 50r issue=200th Anniversary ..'s Victory in the Patriotic War of 1812 1 xl 410743
RU064.12 8/29/2012 45r xl 410744
RU065.12 8/29/2012 13r xl 410745
RU066.12 9/7/2012 50r issue=150th Anniversary o..v Visiting on a spring holyday sun 1915 1 xl 410746
RU067.12 9/7/2012 15r dt=Outstanding Lawyers of Russia d=G.K. Derzhavin 1 xl 410747
RU068.12 9/7/2012 15r d=A.F. Koni 2 xl 410748
RU069.12 9/7/2012 15r d=M.M. Speransky 3 xl 410749
RU070.12 9/11/2012 13r issue=200th Anniversary of Fort Ross d=Fort Ross 1 xl 410750
RU071.12 9/19/2012 10.00r issue=1150th Anniversary of Origin of Russian Statehood 1 xl 410751
RU072.12 9/21/2012 15r d=National Costumes xl 410752
RU073.12 9/29/2012 50r issue=175th Anniversary of Railways in Russia 1 xl 410753
RU074.12 10/1/2012 15r issue=100th Anniversary of Shipbuilding Plant "Severnaya Verf" 1 xl 410754
RU075.12 10/5/2012 40r issue=Construction completion of the Nord Stream Gas Pipeline 1 xl 410755
RU076.12 10/10/2012 13r issue=500th Anniversary..vice on Protection of Borders of Russia 1 xl 410756
RU077.12 11/2/2012 40r issue=400th Anniversary ..storation of Unity of the Russian State 1 xl 410757
RU078.12 11/15/2012 20.00r dt=Kaslinsky Mouldin..tte in the Square Frame Floral Ornament 3 xl 410758
RU079.12 11/15/2012 20.00r d=Small Rosette Framed Asymmetrical Ornament 4 xl 410759
RU080.12 11/15/2012 20.00r d=Large Rosette Fragments of the Openwork Ornament 2 xl 410760
RU081.12 11/15/2012 20.00r d=Slab With Two Concentric Rosettes 1 xl 410761
RU082.12 11/29/2012 50r d=Coat of Arms of Moscow 1 xl 410762
RU083.12 11/29/2012 50r d=Coat of Arms of St Petersburg 2 xl 410763
RU084.12 12/3/2012 13r issue=New Year 2013 1 xl 410764
2013
RU001.13 1/17/2013 50r issue=150th Anniversary of Birth of K.S. Stanislavskiy 1 xl 772468
RU002.13 1/21/2013 15r issue=100th Anniversary of birth of G.N. Flerov 1 xl 772469
RU003.13 1/30/2013 15r issue=Cities of Military..13 d=Arkhangelsk City of Military Glory 1 xl 772470
RU004.13 1/30/2013 15r d=Bryansk City of Military Glory 1 0 xl 772471
RU005.13 1/30/2013 15r d=Volokolamsk City of Military Glory 1 0 xl 772472
RU006.13 1/30/2013 15r d=Kalach-na-Donu City of Military Glory 1 0 xl 772473
RU007.13 1/30/2013 15r d=Kozelsk City of Military Glory 1 0 xl 772474
RU008.13 1/30/2013 15r d=Nalchik City of Military Glory 1 0 xl 772475
RU009.13 1/30/2013 15r dt=Wild Goats and Rams d=Snow Sheep Ovis nivicola 4 xl 772476
RU010.13 1/30/2013 15r d=West Caucasian Tur Capra caucasica 3 xl 772477
RU011.13 1/30/2013 15r d=Bezoar Capra aegagrus 2 xl 772478
RU012.13 1/30/2013 15r d=argali Ovis ammon 1 xl 772479
RU013.13 2/8/2013 15r issue=350th Anniversary of Penza 1 xl 772480
RU014.13 2/18/2013 25r dt=State Awards of the R..an Federation d=Order of Suvorov (2013) 3 xl 772481
RU015.13 2/18/2013 25r d=Order of Saint Catherine the Great Martyr 1 xl 772482
RU016.13 2/18/2013 25r d=Order of Alexander Nevsky 2 xl 772483
RU017.13 2/22/2013 15r issue=Centenary of birth of A.I. Pokryshkin 1 xl 772484
RU018.13 2/22/2013 15r issue=Heroes of the Russ..f the Russian Federation d=V.I. Shkurny 2 5 xl 772485
RU019.13 2/22/2013 15r d=Hero of Russian Federation E N Chernyshev 1963-2010 2 4 xl 772486
RU020.13 2/22/2013 15r d=Hero of Russian Federation Yu A Dmitriev 1978-2002 2 1 xl 772487
RU021.13 2/22/2013 15r d=Hero of Russian Federation N S Maidanov 1956-2000 2 3 xl 772488
RU022.13 2/22/2013 15r d=Hero of Russian Federation O G Ilyin 1967-2004 2 2 xl 772489
RU023.13 2/27/2013 45r xl 772490
RU024.13 3/4/2013 15r dt=Cones of Coniferous trees and shrubs d=Juniperus davurica 1 xl 772491
RU025.13 3/4/2013 15r d=Microbiota decussata 2 xl 772492
RU026.13 3/4/2013 15r d=Larix cajanderi 3 xl 772493
RU027.13 3/4/2013 15r d=Picea obovata (2013) 4 xl 772494
RU028.13 3/5/2013 35r issue=135th Anniversary of end of the Russo-Turkish War of 1877-78 1 xl 772495
RU029.13 3/14/2013 15r xl 772496
RU030.13 3/26/2013 15r issue=150th Anniversary ..Obuhov Steel Works d=Obuhov Steel Works 1 xl 772497
RU031.13 4/1/2013 10.00r issue=50th Anniversary..ic Relations between Russia and Algeria 1 xl 772498
RU032.13 4/30/2013 10.00r dt=Historical centre .. d=Centre of StPetersburg Winter Palace xl 772499
RU033.13 4/30/2013 15r d=Centre of StPetersburg Admiralty St Isaacs Cathedral xl 772500
RU034.13 4/30/2013 20.00r d=Centre of StPetersburg Vasilievsky Island xl 772501
RU035.13 5/6/2013 15r issue=Europa 2013 1 xl 772502
RU036.13 5/8/2013 10.00r dt=warships (2013) d=Krasnoznamenny Minesweeper Mina Warships xl 772503
RU037.13 5/8/2013 12.00r d=Guards patrol ship Blizzard Warships xl 772504
RU038.13 5/8/2013 15r d=Guards armored boat BKA-75 Warships xl 772505
RU039.13 5/8/2013 20.00r d=Krasnoznamennaya gunboat Usyskin Warships xl 772506
RU040.13 5/15/2013 14.25r dt=Sea Vessels (2013) d=Research vessel Vyacheslav Tikhonov xl 772507
RU041.13 5/15/2013 14.25r d=Arctic shuttle tanker Timothy Guzhenko 0 xl 772508
RU042.13 5/18/2013 50r issue=500th Anniversary ..oundation Day of the Alexandrov Kremlin 1 xl 772509
RU043.13 5/20/2013 40r issue=1150th mission ann..tles Cyril and Methodius to the Slavic 1 xl 772510
RU044.13 6/17/2013 15r dt=Contemporary Russian .. d=VPPolotnov On the river Trubezh 2008 xl 772511
RU045.13 6/17/2013 15r d=D A Belyukin Indian Summer Early morning 2003 0 xl 772512
RU046.13 6/17/2013 15r d=A A Lubavin Girl & the city 2005 0 xl 772513
RU047.13 6/18/2013 10.00r d=Coat of Arms of Aleksandrov xl 772514
RU048.13 6/18/2013 14.25r d=Coat of Arms of Kazan xl 772515
RU049.13 5/6/2013 15r issue=Europa 2013 1 xl 514504
RU050.13 6/29/2013 15r d=Holder of Order of St Andrew RGGamzatov 1923-2003 xl 772517
RU051.13 7/5/2013 15r dt=Arts & Crafts of Russia - Shawls d=Karabanovo scarf Cotton xl 772518
RU052.13 7/5/2013 15r d=Moscow Tryokhgornaya manufactory scarf Cotton 0 xl 772519
RU053.13 7/5/2013 15r d=Pavlovsky Posad shawl Wool 0 xl 772520
RU054.13 7/5/2013 15r d=Orenburg shawl feathers Wool 0 xl 772521
RU055.13 7/5/2013 14.25r issue=50th Anniversary..t Woman in Space d=Valentina Tereshkova 1 xl 772522
RU056.13 7/26/2013 30r issue=Joint Issue The Ru..nd Ukraine - 1025th Anniversary of Chri 1 xl 772523
RU057.13 8/1/2013 50r d=Coat of Arms of Penza xl 772524
RU058.13 8/5/2013 14.25r issue=Joint issue The ..d Islands (Finland) - Passenger Ferries 1 xl 772525
RU059.13 8/9/2013 14.25r issue=XVI World Athletics Championship 1 xl 772526
RU060.13 8/13/2013 10.00r issue=125th Anniversa..strategic bombers d=Tupolev Tu-2 Bomber 1 xl 772527
RU061.13 8/13/2013 13r d=Tupolev TB-7 Soviet Heavy Bomber Petlyakov Pe-8 1 xl 772528
RU062.13 8/13/2013 15r d=Tupolev Tu-16 1 xl 772529
RU063.13 8/13/2013 17.00r d=Tupolev Tu-22M3 Long-Range Strategic Bomber 1 xl 772530
RU064.13 8/13/2013 20.00r d=Tupolev Tu-95 Strategic Bomber & Missile Platform 1 xl 772531
RU065.13 8/15/2013 15r issue=150th Anniversary of Kolomensky Plant 1 xl 772532
RU066.13 8/21/2013 14.25r xl 772533
RU067.13 9/2/2013 15r issue=Joint issue Russian..eration & Principality of Liechtenstein 1 xl 772534
RU068.13 9/2/2013 15r 1 0 xl 772535
RU069.13 9/4/2013 15r issue=100th Anniversary o..cebreaker Vaygach Russian Imperial Navy 1 1 xl 772536
RU070.13 9/4/2013 15r d=BAVilkitsky 1885-1961 1 2 xl 772537
RU071.13 9/4/2013 15r d=Icebreaker Taymyr Russian Imperial Navy 1 3 xl 772538
RU072.13 9/9/2013 15r issue=18th conference of ..al Association of Prosecutors in Moscow 1 xl 772539
RU073.13 xlink Colnect 478504-1150th_Anniversary_of_Sm..k-1150th_Anniversary_of_Smolensk-Russia xl 1347895
RU074.13 xlink Colnect 437229-Holder_of_Order_of_St_An..valiers_of_the_Order_of_StAndrew-Russia xl 1347897
RU075.13 xlink Colnect 478505-Coat_of_Arms_of_Yaroslav..nt_entities_of_Russia_Federation-Russia xl 1347898
RU076.13 xlink Colnect 478506-200th_Anniv_of_Victory_o.._over_Napoleon_in_Leipzig_Battle-Russia xl 1347899
RU077.13 xlink Colnect 464808-ALBobykin_Kerosene_2012-Contemporary_Russian_Art-Russia xl 1347900
RU078.13 xlink Colnect 464809-VMMalogo_Bouquet_2005-Contemporary_Russian_Art-Russia xl 1347901
RU079.13 xlink Colnect 464810-MVPereyaslavets_Monument..ibirsk_-Contemporary_Russian_Art-Russia xl 1347902
RU080.13 xlink Colnect 464820-75th_Aniversary_of_Unive..of_Universal_Single_Combat_SAMBO-Russia xl 1347906
RU081.13 xlink Colnect 471333-Dragoon_Police_Officer_1.._of_the_Russian_Military_Uniform-Russia xl 1347907
RU082.13 xlink Colnect 471334-Policeman_Cavalry_Captai.._of_the_Russian_Military_Uniform-Russia xl 1347908
RU083.13 xlink Colnect 471335-Traffic_Policewoman_Mili.._of_the_Russian_Military_Uniform-Russia xl 1347909
RU084.13 xlink Colnect 471336-Senior_Lieutenant_Major_.._of_the_Russian_Military_Uniform-Russia xl 1347910
RU085.13 xlink Colnect 471349-FN_Plevako_-_Jurist-Russias_Outstanding_Famous_Lawyers-Russia xl 1347926
RU086.13 xlink Colnect 471350-AN_Radishev_-_Jurist-Russias_Outstanding_Famous_Lawyers-Russia xl 1347927
RU087.13 xlink Colnect 471351-ZIL-111V_Soviet_Top_Clas..acoAutomobile_Production_History-Russia xl 1347928
RU088.13 xlink Colnect 471352-Sunbeam_Alpine_Sporty_Tw..acoAutomobile_Production_History-Russia xl 1347929
RU089.13 xlink Colnect 478507-20th_Anniversary_of_Cons..nstitution_of_Russian_Federation-Russia xl 1347930
RU090.13 xlink Colnect 471354 xl 1347934
RU091.13 xlink Colnect 471355-20th_Anniv_of_State_Duma..tate_Duma_and_Federation_Council-Russia xl 1347933
2014
RU001.14 postage 1/9/2014 15r multi issue=150th Birth Anniversary of V.A. Steklov unwmk 1 xl 1480885
RU002.14 1/24/2014 1.00r issue=kremlins 2014 d=Astrakhan Kremlin 1 xl 1480886
RU003.14 1/24/2014 1.50r d=Zaraysk Kremlin 1 xl 1480887
RU004.14 1/24/2014 2.00r d=Kazan Kremlin 1 xl 1480888
RU005.14 1/24/2014 4.00r d=Nizhny Novgorod Kremlin 1 xl 1480889
RU006.14 1/24/2014 5.00r d=Novgorod Kremlin 1 xl 1480890
RU007.14 1/24/2014 6.00r d=Pskov Kremlin 1 xl 1480891
RU008.14 1/24/2014 10.00r d=Moscow Kremlin (2014) 1 xl 1480892
RU009.14 1/24/2014 25r d=Ryazan Kremlin 1 xl 1480893
RU010.14 1/24/2014 2.50r d=Kolomna Kremlin 1 xl 1480894
RU011.14 1/24/2014 3.00r d=Rostov Kremlin 1 xl 1480895
RU012.14 1/24/2014 25r issue=Winter Olympics 2014 d=biathlon (2014 Russia) 2 xl 1480896
RU013.14 1/24/2014 25r d=XXII Olympic Winter Ga..chi - Winter Olympic Sports - Bobsleigh 2 0 xl 1480897
RU014.14 1/24/2014 25r d=XXII Olympic Winter Ga..- Winter Olympic Sports - Alpine Skiing 2 0 xl 1480898
RU015.14 1/24/2014 25r d=XXII Olympic Winter Ga..Sochi - Winter Olympic Sports - Curling 2 0 xl 1480899
RU016.14 1/24/2014 25r d=XXII Olympic Winter Ga.. - Winter Olympic Sports - Jumping Race 2 0 xl 1480900
RU017.14 1/24/2014 25r d=XXII Olympic Winter Ga..ochi - Winter Olympic Sports - Ski Race 2 0 xl 1480901
RU018.14 1/24/2014 25r d=XXII Olympic Winter Ga..i - Winter Olympic Sports - Ski Jumping 2 0 xl 1480902
RU019.14 1/24/2014 25r d=XXII Olympic Winter Ga..in Sochi - Winter Olympic Sports - Luge 2 0 xl 1480903
RU020.14 1/24/2014 25r d=XXII Olympic Winter Ga..ochi - Winter Olympic Sports - Skeleton 2 0 xl 1480904
RU021.14 1/24/2014 25r d=XXII Olympic Winter Ga..- Winter Olympic Sports - Speed Skating 2 0 xl 1480905
RU022.14 1/24/2014 25r d=XXII Olympic Winter Ga..chi - Winter Olympic Sports - Snowboard 2 0 xl 1480906
RU023.14 1/24/2014 25r d=XXII Olympic Winter Ga.. Winter Olympic Sports - Figure Skating 2 0 xl 1480907
RU024.14 1/24/2014 25r d=XXII Olympic Winter Ga..chi - Winter Olympic Sports - Freestyle 2 0 xl 1480908
RU025.14 1/24/2014 25r d=XXII Olympic Winter Ga..hi - Winter Olympic Sports - Ice Hockey 2 0 xl 1480909
RU026.14 1/24/2014 25r d=XXII Olympic Winter Ga..i - Winter Olympic Sports - Short Track 2 0 xl 1480910
RU027.14 1/31/2014 25r issue=State Decorations ..e Russian Federation d=Order of Ushakov 1 xl 1709073
RU028.14 1/31/2014 25r d=Order of Zhukov 1 0 xl 1709075
RU029.14 1/31/2014 25r d=Order of Kutuzov 1 0 xl 1709077
RU030.14 2/7/2014 50r issue=Winter Olympics 2014 medals 1 xl 1480914
RU031.14 2/7/2014 75r 1 xl 1480915
RU032.14 2/7/2014 25r 1 xl 1480916
RU033.14 2/13/2014 40r issue=150th Anniversary of Moscow Zoo 1 xl 1480917
RU034.14 2/21/2014 15r issue=Heroes of the Russian Federation d=M. Yu. Malofeev 2 xl 1709079
RU035.14 2/21/2014 15r d=A.V. Perov 2 0 xl 1709081
RU036.14 2/21/2014 15r d=A.N. Rozhkov 2 0 xl 1709083
RU037.14 2/21/2014 15r d=A.A. Turkin 2 0 xl 1709085
RU038.14 2/21/2014 15r d=V.S. Chechviy 2 0 xl 1709087
RU039.14 3/7/2014 50r issue=Centenary of Birth of A.M. Gritsai d=by Aleksei Gritsai 1 xl 1480923
RU040.14 3/14/2014 15r issue=Flora of Russia d=..erion angustifolium - Great Willow-herb 1 xl 1480924
RU041.14 3/14/2014 15r d=Lupinus polyphyllus 1 0 xl 1480925
RU042.14 3/14/2014 15r d=Cichorium intybus (2014) 1 0 xl 1480926
RU043.14 3/14/2014 15r d=Matricaria recutita 1 0 xl 1480927
RU044.14 3/28/2014 15r issue=Centenary of Birth of M.L. Gallay 1 xl 1480928
RU045.14 4/18/2014 50r issue=Joint issue - Russian Federation and Republic of Belarus 1 xl 1480929
RU046.14 4/18/2014 15r issue=Aviation History - Air Rams d=P.V. Eremeyev 2 xl 1480930
RU047.14 4/18/2014 15r d=E.I. Zelenko 2 0 xl 1480931
RU048.14 4/18/2014 15r d=B.I. Kovzan 2 0 xl 1480932
RU049.14 4/18/2014 15r d=A.S. Khlobystov 2 0 xl 1480933
RU050.14 4/25/2014 12.00r issue=70th Anniversar.. the Victory in the Great Patriotic War 1 xl 1480934
RU051.14 4/25/2014 15r d=76-mm divisional gun ZIS-3 Artillery 1 xl 1480935
RU052.14 4/25/2014 18.00r 1 xl 1480936
RU053.14 4/25/2014 20.00r 1 xl 1480937
RU054.14 4/30/2014 18.00r issue=Europa 2014 1 xl 1480938
RU055.14 5/5/2014 15r issue=Centenary of Birth of Ya. B. Zeldovich 1 xl 1480939
RU056.14 5/21/2014 15r issue=Joint issue of the..onfederation. Architecture.Tower Clocks 1 xl 1480940
RU057.14 5/21/2014 20.00r 1 xl 1480941
RU058.14 6/20/2014 15r d=Cultural and Historica..nce with Article 8 of the UPU Conventio xl 1347976
RU059.14 6/10/2014 50r issue=300th Anniversary of the St Petersburg Post Office 1 xl 1480943
RU060.14 6/4/2014 15r d=Concord Tower xl 1480756
RU061.14 6/19/2014 15r d=Crimea - (Not in compl..e with Article 8 of the UPU Convention) xl 1480757
RU062.14 6/20/2014 50r d=250 Years of the foundation of the State Hermitage xl 1480946
RU063.14 6/24/2014 10.50r d=Coat of Arms of the city of Sergiev Posad xl 1480947
RU064.14 6/26/2014 15r issue=100 Years of the Factory "Barricades" 1 xl 1480948
RU065.14 6/27/2014 15r d=100th Anniversary of the Unification of Russia and Tuva xl 1480761
RU066.14 6/27/2014 15r d=Centenary of the Birth of V.N. Chelomey 0 xl 1480950
RU067.14 7/2/2014 40r d=Baikal-Amur railway xl 1480951
RU068.14 7/7/2014 25r d=Gold Medal "Hero of Labor of the Russian Federation" xl 1480952
RU069.14 7/7/2014 25r d=medal "For the Defence of Leningrad" 0 xl 1480953
RU070.14 7/7/2014 25r d=medal for the Defence of Sevastopol 0 xl 1480954
RU071.14 7/7/2014 25r d=Medal "For the Defence of Moscow" 0 xl 1480767
RU072.14 7/7/2014 25r d=Medal for the Defence of Stalingrad 0 xl 1480768
RU073.14 7/7/2014 15r d=Joint issue of the Russ..f Bulgaria - Traditionals and Modernity xl 1480957
RU074.14 7/28/2014 15r d=Hugo Rafael Chávez Frías xl 1480958
RU075.14 7/31/2014 20.00r issue=History of the ..st World War d=Brusilovsky breakthrough 1 xl 1480785
RU076.14 7/31/2014 20.00r d=Osovets 1 0 xl 1480786
RU077.14 7/31/2014 20.00r d=Russian Expeditionary Force 1 0 xl 1480961
RU078.14 7/31/2014 20.00r d=Erzurum operation 1 0 xl 1480788
RU079.14 8/1/2014 50r issue=300 Years since Naval Battle of Gangut 1 xl 1480963
RU080.14 8/1/2014 15r issue=Fauna of Russia dt=wild cats d=Manul 2 xl 1480964
RU081.14 8/1/2014 16.00r d=wildcat (2014) 2 xl 1480965
RU082.14 8/1/2014 17.00r d=Amur Cat 2 xl 1480966
RU083.14 8/1/2014 18.00r d=Jungle Cat 2 xl 1480967
1484
RU085.14 8/8/2014 25r d=Medal For the Defence of the Soviet Arctic xl 1480779
RU086.14 8/8/2014 25r d=Medal For the Defence of Odessa 0 xl 1480780
RU087.14 8/8/2014 25r d=Medal For the Defence of Kyiv 0 xl 1480781
RU088.14 8/8/2014 25r d=Medal For the Defence of the Caucasus 0 xl 1480782
RU089.14 8/22/2014 15r d=75th Anniversary of th..ian Forces over the Japanese Aggressors xl 1480789
RU090.14 8/26/2014 15r issue=Marine Fleet of Ru..ctional icebreaking vessel Vitus Bering 1 1 xl 1480973
RU091.14 8/26/2014 15r d=Sadko 1 2 xl 1480974
RU092.14 8/28/2014 20.00r issue=Towns of Military Glory d=Anapa 1 1 xl 1480975
RU093.14 8/28/2014 20.00r d=Vladivostok 1 2 xl 1480976
RU094.14 8/28/2014 20.00r d=Kovrov 1 3 xl 1480977
RU095.14 8/28/2014 20.00r d=Kolpino 1 4 xl 1480978
RU096.14 8/28/2014 20.00r d=Stary Oskol 1 5 xl 1480979
RU097.14 8/28/2014 20.00r d=Tikhvin 1 6 xl 1480980
RU098.14 8/22/2014 15r d=100th Anniversary of the City of Kyzyl xl 1480797
RU099.14 9/1/2014 15r issue=History of the Russ..f the Yamskoy Prikaz and a Postman 1671 1 xl 1480982
RU100.14 9/1/2014 15r d=A Postman and an Officer of the Yamskoy Office 1767 1 0 xl 1480983
RU101.14 9/1/2014 15r d=A Postman and Telegraphist 1870 1 0 xl 1480984
RU102.14 9/1/2014 15r d=A Postman and Line Operator 1950 1 0 xl 1480985
RU103.14 9/3/2014 15r issue=450 Years of Book Printing in Russia 1 xl 1480986
RU104.14 9/5/2014 45r d=Church of the Ascension of Christ in Kolomenskoye xl 1480987
RU105.14 9/16/2014 70r issue=700th Anniversary .. Birth of Venerable Sergius of Radonezh 1 xl 1480988
RU106.14 9/18/2014 18.00r d=Main Centre for Special Communications xl 1480989
RU107.14 9/25/2014 50r d=arms of Krasnodar Krai xl 1480990
RU108.14 10/7/2014 20.00r issue=A Joint issue b..he RCC Member Countries - Winter Sports 1 xl 1617011
RU109.14 10/12/2014 18.00r d=A Joint issue betw..tic People's Republic of Korea - Osprey xl 1617012
RU110.14 10/12/2014 15r d=Joint issue between R..Republic of Korea - Eurasian Sparrowhaw xl 1617013
RU111.14 10/12/2014 15r d=Formula-1 World Championship 0 xl 1617014
RU112.14 10/15/2014 50r issue=200th Anniversary of Birth of Mikhaïl Lermontov 1 xl 1617015
RU113.14 10/21/2014 15r d=Coat of Arms of Sochi xl 1617016
RU114.14 10/24/2014 15r d=Cavalier of the Order..led - Mikhaïl Kalachnikov (1919-2013), xl 1617017
RU115.14 10/24/2014 15r d=Full Cavalier of the ..na Vishnevskaya (1926-2012), Operea Sin 0 xl 1617018
RU116.14 10/29/2014 20.00r issue=The Imperial Orthodox Palestine Society 1 xl 1617019
RU117.14 10/29/2014 20.00r 1 0 xl 1617020
RU118.14 10/29/2014 20.00r 1 0 xl 1617021
RU119.14 11/7/2014 15r issue=Fauna of Russia d=snow leopard (2014 Russia) 2 xl 1617022
RU120.14 11/7/2014 18.00r d=Far Eastern Leopard 2 xl 1617023
RU121.14 11/7/2014 20.00r d=Amur Tiger 2 xl 1617024
RU122.14 11/13/2014 15r issue=100th Anniversary of Birth of G. Babakhin 1 xl 1617025
RU123.14 11/25/2014 50r issue=World Cup 2014 1 xl 1617026
RU124.14 11/25/2014 15r d=State Nature Biosphere Reserve “Kerzhenski” xl 1617027
RU125.14 11/28/2014 20.00r issue=Russian Arts and Crafts. Wood Carving. Door Trims 1 xl 1617028
RU126.14 11/28/2014 20.00r 1 0 xl 1617029
RU127.14 11/28/2014 20.00r 1 0 xl 1480833
RU128.14 11/28/2014 20.00r 1 0 xl 1480835
RU129.14 12/2/2014 50r d=arms of Tver Region xl 1617032
RU130.14 12/3/2014 15r issue=Outstanding Lawyers of Russia d=F. F. Martens 1 xl 1617033
RU131.14 12/3/2014 15r d=S. A. Muromtsev 1 0 xl 1617034
RU132.14 12/3/2014 15r d=P. I. Yaguzhinskiy 1 0 xl 1617035
RU133.14 12/12/2014 15r issue=Contemporary Russ..d=Monument to A. Nevsky, St. Petersburg 1 xl 1617036
RU134.14 12/12/2014 15r d="Spring in Kolomenskoye" 1 0 xl 1617037
RU135.14 12/12/2014 15r d="Lilac" 1 0 xl 1617038
RU136.14 12/12/2014 15r d="Victory of Peresvet" 1 0 xl 1617039
RU137.14 12/12/2014 15r d="Near Radonezh, the River of Vorya" 1 0 xl 1617040
RU138.14 12/12/2014 15r d="The Walls of Pskov Kremlin" 1 0 xl 1617041
RU139.14 12/12/2014 15r issue=New Year 2014 2 xl 1617042
2015
RU001.15 1/16/2015 23r issue=Europa 2015 1 xl 1626869
RU002.15 1/22/2015 50r issue=150th Anniversary of Birth of V.A. Serov 1 xl 1626870
RU003.15 1/27/2015 23r issue=Postcrossing 2015 1 xl 1626871
RU004.15 2/10/2015 50r d=World Natural Heritage of Russia - Natural Park "Lena Pillars" xl 1626872
RU005.15 2/12/2015 15r d=S.P. Kapista xl 1626873
RU006.15 2/19/2015 25r issue=State Awards of th..ian Federation 2015 d=Order of Nakhimov 1 xl 1626874
RU007.15 2/19/2015 25r d=Order of Courage 1 0 xl 1626875
RU008.15 2/19/2015 25r d=Order of Friendship 1 0 xl 1626876
RU009.15 2/24/2015 20.00r issue=Cities of Military Glory 2015 d=Lomonosov 1 xl 1626877
RU010.15 2/24/2015 20.00r d=Maloyaroslavets 1 0 xl 1626878
RU011.15 2/24/2015 20.00r d=Mozhaysk 1 0 xl 1626879
RU012.15 2/24/2015 20.00r d=Petropavlosk-Kamchatsky 1 0 xl 1626880
RU013.15 2/24/2015 20.00r d=Taganrog 1 0 xl 1626881
RU014.15 2/24/2015 20.00r d=Khabarovsk 1 0 xl 1626882
RU015.15 3/18/2015 16.00r issue=70th Anniversar.. the Great Patriotic War d=P.M. Silayev 1 2 xl 1626883
RU016.15 3/18/2015 16.00r d=A.I. Galushkin 1 1 xl 1626884
RU017.15 3/19/2015 16.00r issue=70th Anniversar..e Great Patriotic War b d=E. Ya. Osipov 1 xl 1626885
RU018.15 3/19/2015 16.00r d=A.I. Marinesko 1 0 xl 1626886
RU019.15 3/21/2015 17.00r d=Dzerzhinsky Indepen.. Ministry of Internal Affairs of Russia xl 1626887
RU020.15 3/26/2015 20.00r issue=150th Anniversary of the District Council Post 1 xl 1626888
RU021.15 4/2/2015 30r issue=70th Anniversary of.. c d=Medal For the Liberation of Prague 1 2 xl 1626889
RU022.15 4/2/2015 30r d=Medal For the Liberation of Belgrade 1 3 xl 1626890
RU023.15 4/2/2015 30r d=Medal For the Liberation of Warsaw 1 1 xl 1626891
RU024.15 4/10/2015 17.00r issue=50th Anniversar..f the First Spacewalk d=First Spacewalk 1 xl 1626892
RU025.15 4/16/2015 20.00r issue=Flora of Russia d=Pinus stankewiczii 1 1 xl 1626893
RU026.15 4/16/2015 20.00r d=Juniperus excelsa (2015) 1 2 xl 1626894
RU027.15 4/16/2015 20.00r d=Norway Maple 1 3 xl 1626895
RU028.15 4/16/2015 20.00r d=English oak (2015) 1 4 xl 1626896
RU029.15 4/16/2015 17.00r issue=State Programme..nt of Voluntary Donorship Blood Service 1 xl 1626897
RU030.15 4/17/2015 20.00r issue=Accounts Chamber of Russia 1 xl 1626898
RU031.15 4/23/2015 26.50r issue=175th Anniversa..mp d=Penny Black under magnifying glass 1 xl 1626899
RU032.15 4/28/2015 17.00r d=R.A. Rudenko xl 1626900
RU033.15 4/30/2015 12.00r issue=70th Anniversar..toic War e d=Armored Train Moscow Metro 1 xl 1626901
RU034.15 4/30/2015 17.00r d=Armored Train Fighter of the German invaders 1 xl 1626902
RU035.15 4/30/2015 19.00r d=Armored Train Moskvich 1 xl 1626903
RU036.15 4/30/2015 27r d=Armored Train Kozma Minin 1 xl 1626904
RU037.15 5/5/2015 30r issue=70th Anniversary of.. d=Medal For the Capture of Königsberg 1 1 xl 1626905
RU038.15 5/5/2015 30r d=Medal For the Capture of Vienna 1 2 xl 1626906
RU039.15 5/5/2015 30r d=Medal For the Capture of Berlin 1 3 xl 1626907
RU040.15 5/5/2015 30r d=Medal For the Capture of Budapest 1 4 xl 1626908
RU041.15 5/5/2015 70r 1 xl 1626909
RU042.15 5/7/2015 17.00r issue=150th Anniversar..national Telecommunications Union (ITU) 1 xl 1626910
RU043.15 5/12/2015 19.00r issue=International Exhibition "Sviaz Expocomm" 1 xl 1626911
RU044.15 5/21/2015 17.00r issue=Eurasian Economic Union 1 xl 1626912
RU045.15 5/22/2015 17.00r d=Joseph Brodsky xl 1626913
RU046.15 5/28/2015 16.00r issue=Fauna of Russia series - Service Breeds of Dogs 1 xl 1626914
RU047.15 5/28/2015 18.00r 1 xl 1626915
RU048.15 5/28/2015 20.00r 1 xl 1626916
RU049.15 5/28/2015 26.50r 1 xl 1626917
RU050.15 5/28/2015 150r issue=175th Anniversary of Birth of Pyotr I. Tchaikovsky 2 xl 1626918
RU051.15 6/2/2015 26.50r issue=Mining and Metallurgical Company Norilsk Nickel 1 xl 1626919
RU052.15 6/4/2015 40r issue=Bank of Russia 1 xl 1626920
RU053.15 6/4/2015 40r 1 0 xl 1626921
RU054.15 6/4/2015 40r 1 0 xl 1626922
RU055.15 6/16/2015 12.00r d=Coat of Arms of Derbent xl 1626923
RU056.15 6/16/2015 17.00r d=Coat of Arms of Nizhny Novgorod xl 1626924
RU057.15 6/16/2015 26.50r d=International Children's Centre "Artek" xl 1626925
RU058.15 6/23/2015 25r issue=200th Anniversary .. of Pavel A. Fedotov (1815-1852) Artist 1 xl 1626926
RU059.15 6/23/2015 25r 1 0 xl 1626927
RU060.15 6/25/2015 17.00r issue=Year of Literature in Russia 1 xl 1626928
RU061.15 7/7/2015 19.00r issue=Meeting of the C..f the Shanghai Cooperation Organization 1 xl 1626929
RU062.15 7/10/2015 21.00r issue=250th Anniversary of Birth of Pyotr Bagration 1 xl 1626930
RU063.15 7/23/2015 17.00r d=FSUE "Russian Post" xl 1626931
RU064.15 7/23/2015 35r issue=Russian Geographical Society 1 xl 1626932
RU065.15 7/24/2015 17.00r issue=XVI FINA World Championships in Kazan 1 xl 1626933
RU066.15 8/3/2015 21.00r issue=History of World War I 1 xl 1626934
RU067.15 8/3/2015 21.00r 1 0 xl 1626935
RU068.15 8/3/2015 21.00r 1 0 xl 1626936
RU069.15 8/3/2015 21.00r 1 0 xl 1626937
RU070.15 8/4/2015 20.00r issue=Russian Arts and Crafts - Porcelain tiles 1 xl 1626938
RU071.15 8/4/2015 20.00r 1 0 xl 1626939
RU072.15 8/4/2015 20.00r 1 0 xl 1626940
RU073.15 8/4/2015 20.00r 1 0 xl 1626941
RU074.15 8/11/2015 17.00r issue=History of the .. - Uniform Jackets of Railway Transport 1 xl 1626942
RU075.15 8/11/2015 17.00r 1 0 xl 1626943
RU076.15 8/11/2015 17.00r 1 0 xl 1626944
RU077.15 8/11/2015 17.00r 1 0 xl 1626945
RU078.15 8/14/2015 19.00r d=150th Anniversary of the Leningrad Zoo xl 1626946
RU079.15 8/14/2015 17.00r d=Nikolayevsk-on Amur city xl 1626947
RU080.15 8/23/2015 19.00r issue=Monasteries of Russian Orthodox Church 1 xl 1626948
RU081.15 8/23/2015 19.00r 1 0 xl 1626949
RU082.15 8/26/2015 12.00r issue=100th Anniversary of Birth of Boris F. Safonov 1 xl 1626950
RU083.15 8/28/2015 19.00r issue=Joint issue bet.. Anniversary of the Liberation of Korea 1 xl 1685817
RU084.15 8/28/2015 50r d=Coat of Arms of the Co.. Russian Federation - Republic of Tatar 1 xl 1685818
RU085.15 9/2/2015 17.00r issue=70th Anniversary of the end of World War II 1 xl 1685819
RU086.15 9/9/2015 35r issue=500th Anniversary of Nizhny Novgorod Stone Kremlin 1 xl 1685820
RU087.15 9/10/2015 21.00r issue=History of the First World War b 1 xl 1685821
RU088.15 9/10/2015 21.00r 1 0 xl 1685822
RU089.15 9/10/2015 21.00r 1 0 xl 1685823
RU090.15 9/10/2015 21.00r 1 0 xl 1685824
RU091.15 9/15/2015 26.50r issue=70th Anniversary of the United Nations 1 xl 1685825
RU092.15 9/18/2015 100r issue=2018 FIFA World Cup in 2015 1 xl 1685826
RU093.15 9/21/2015 21.00r issue=The Federal Antimonopoly Service 1 xl 1685827
RU094.15 9/22/2015 19.00r issue=Joint issue Rus..lic of Azerbaijan - Modern Architecture 1 xl 1685828
RU095.15 9/22/2015 19.00r 1 0 xl 1685829
RU096.15 9/23/2015 19.00r issue=Sea Fleet of Russia 1 xl 1685830
RU097.15 9/23/2015 19.00r 1 0 xl 1685831
RU098.15 9/24/2015 17.00r issue=Russian Nuclear Industry 1 xl 1685832
RU099.15 9/25/2015 21.00r d=Saint Vladimir the Great xl 1685833
RU100.15 10/1/2015 26.50r issue=Russia in FIFA ..p Tournaments d=World Cup stamp of 1958 1 1 xl 1685834
RU101.15 10/1/2015 26.50r d=Russia in the FIFA World Cup FIFA ™ 1962 year 1 2 xl 1685835
RU102.15 10/1/2015 26.50r d=Russia in the FIFA World Cup FIFA ™ 1966 year 1 3 xl 1685836
RU103.15 10/1/2015 26.50r d=Cup FIFA ™ 1970 year 1 4 xl 1685837
RU104.15 10/1/2015 26.50r d=Russia in the FIFA World Cup FIFA ™ 1982 year 1 5 xl 1685838
RU105.15 10/1/2015 26.50r d=Russia in the FIFA World Cup FIFA ™ 1986 year 1 6 xl 1685839
RU106.15 10/2/2015 19.00r issue=Joint issue of .. of Capitals d=House-Museum V Vasnetsov 2 xl 1685840
RU107.15 10/2/2015 35r issue=2000th Anniversary of the Foundation of the City of Derbent 1 xl 1685841
RU108.15 10/14/2015 26.50r issue=50th Anniversa..ion of Monuments of History and Culture 1 xl 1685842
RU109.15 10/19/2015 19.00r issue=Joint issue Ru..- 125th Anniversary of establishing Dip 1 xl 1685843
RU110.15 10/19/2015 19.00r 1 0 xl 1685844
RU111.15 10/23/2015 35r d=World Cultural Herita..City of Tauric Chersonese and its Chora xl 1685845
RU112.15 10/28/2015 19.00r d=Disaster Reduction xl 1685846
RU113.15 10/28/2015 21.00r d=70th Anniversary of victory in the Great Patriotic War xl 1685847
RU114.15 11/5/2015 19.00r d=150th Anniversary of Patriarch Tikhon xl 1726809
RU115.15 11/5/2015 50r d=arms of Kostroma Region xl 1726810
RU116.15 11/5/2015 17.00r d=I.Y. Shelohvostov xl 1726811
RU117.15 11/10/2015 17.00r issue=Heroes of the Russian Federation d=V.V. Maiboroda 2 1 xl 1726812
RU118.15 11/10/2015 17.00r d=V.A. Tinkov 2 4 xl 1726813
RU119.15 11/10/2015 17.00r d=S.S. Aleksandrovich 2 3 xl 1726814
RU120.15 11/10/2015 17.00r d=M.V. Mikhailovich 2 2 xl 1726815
RU121.15 11/10/2015 19.00r d=100th Anniversary of Birth of Ashot Badalov xl 1726816
RU122.15 11/11/2015 21.00r issue=Joint issue be..ratic Republic - 55th Anniversary of Di 1 xl 1726817
RU123.15 11/11/2015 21.00r 1 0 xl 1726818
RU124.15 11/17/2015 21.00r issue=World Cup 2018..=stadiums (2015) d=Stadium Fischt Sochi 1 1 xl 1726819
RU125.15 11/17/2015 21.00r d=Stadium Luzhniki Moscow 1 2 xl 1726820
RU126.15 11/17/2015 21.00r d=Stadium Spartak Moscow 1 3 xl 1726821
RU127.15 11/17/2015 21.00r d=Stadium Kazan Arena Kazan 1 4 xl 1726822
RU128.15 11/17/2015 17.00r issue=200th Annivers.. of Foundation of Zlatoust Arms Factory 2 xl 1726823
RU129.15 11/27/2015 21.00r d=Ministry of the Ru..cies and Elimination of Consequences of xl 1726824
RU130.15 12/3/2015 17.00r d=150th Anniversary o..an Timiryazev State Agrarian University xl 1726825
RU131.15 12/3/2015 17.00r issue=Outstanding Lawyers of Russia d=K.P. Pobedonostsev 1 2 xl 1726826
RU132.15 12/3/2015 17.00r d=N.V. Muraviev 1 1 xl 1726827
RU133.15 12/3/2015 17.00r d=N.S. Tagantsev 1 3 xl 1726828
RU134.15 12/9/2015 26.50r issue=World Cup 2018 ..ootball Legends d=GD Kachalin 1911-1995 1 1 xl 1726829
RU135.15 12/9/2015 26.50r d=VB Bubukin 1933-2008 1 2 xl 1726830
RU136.15 12/9/2015 26.50r d=JN Voinov 1931-2003 1 3 xl 1726831
RU137.15 12/9/2015 26.50r d=VC Ivanov 1934-2011 1 4 xl 1726832
RU138.15 12/9/2015 26.50r d=S.S. Salnikov 1 5 xl 1726833
RU139.15 12/9/2015 26.50r d=EA Streltsov 1937-1990 1 6 xl 1726834
RU140.15 12/9/2015 26.50r d=LI Yashin 1929-1990 1 7 xl 1726835
RU141.15 12/10/2015 35r issue=New Year 2016 1 xl 1726836
2016
RU001.16 1/13/2016 21.00r issue=Joint Issue of ..RCC Member Countires - National Cuisine 1 xl 1726844
RU002.16 1/27/2016 50r issue=175th Anniversary of the Birth of Arkhip Kuindzhi 1 xl 1726845
RU003.16 1/28/2016 25r issue=175th Anniversary of the birth of Vasiliy O. Kluchevskiy 1 xl 1726846
RU004.16 1/28/2016 25r d=250th Anniversary of Birth of Nikolai M. Karamzin xl 1726847
RU005.16 2/18/2016 20₽ issue=Cities of Military Glory 2016 d=Gatchina 1 1 xl 1726848
RU006.16 2/18/2016 20.00r d=Grozny 1 2 xl 1726849
RU007.16 2/18/2016 20.00r d=Petrozavodsk 1 3 xl 1726850
RU008.16 2/18/2016 20.00r d=Staraya Russa 1 4 xl 1726851
RU009.16 2/18/2016 20.00r d=Feodosia 1 5 xl 1726852
RU010.16 2/19/2016 25r issue=State Awards of th..ssian Federation 2016 d=Gold Star Medal 1 xl 1726853
RU011.16 2/19/2016 25r d=Hero of Labor of the Russian Federation Gold Medal 1 0 xl 1726854
RU012.16 2/19/2016 25r d=Order of St Andrew the Apostle the First-Called 1 0 xl 1726855
RU013.16 2/19/2016 25r d=Order of St George 1 0 xl 1726856
RU014.16 2/19/2016 25r d=Order for Merit to the Motherland 1 0 xl 1726857
RU015.16 2/19/2016 25r d=Order of St Catherine the Great Martyr 1 0 xl 1726858
RU016.16 2/19/2016 25r d=Order of Alexander Nevsky 1 0 xl 1726859
RU017.16 2/19/2016 25r d=Order of Suvorov (2016) 1 0 xl 1726860
RU018.16 2/19/2016 25r d=Order of Ushakov 1 0 xl 1726861
RU019.16 2/19/2016 25r d=Order of Zhukov 1 0 xl 1726862
RU020.16 2/19/2016 25r d=Order of Kutuzov 1 0 xl 1726863
RU021.16 2/19/2016 25r d=Order of Nakhimov 1 0 xl 1726864
RU022.16 2/19/2016 25r d=Order of Courage 1 0 xl 1726865
RU023.16 2/19/2016 25r d=Order of Military Merit 1 0 xl 1726866
RU024.16 2/19/2016 25r d=Order of Naval Merit 1 0 xl 1726867
RU025.16 2/19/2016 25r d=Order of Honor 1 0 xl 1726868
RU026.16 2/19/2016 25r d=Order of Friendship 1 0 xl 1726869
RU027.16 2/19/2016 25r d=Parental Glory Order 1 0 xl 1726870
RU028.16 2/20/2016 19.00r d=The Continental Hockey League 2016 Gagarin Cup xl 1726871
RU029.16 2/26/2016 21.00r issue=Accession of the Russian Federation to Council of Europe 1 xl 1726872
RU030.16 3/3/2016 17.00r d=The Regional Commonw..th in the field of Communications (RCC) xl 1726873
RU031.16 3/24/2016 19.00r issue=Heroes of the R..d=Captain Viktor Mikhailovich Adamishin 1 xl 1726874
RU032.16 3/24/2016 19.00r d=Colonel Alexey Vasilyevich Balandin 1 0 xl 1726875
RU033.16 3/24/2016 19.00r d=Captain Dmitry Alexandrovich Serkov 1 0 xl 1726876
RU034.16 3/25/2016 31r issue=Postcrossing 2016 1 xl 1726877
RU035.16 4/12/2016 31r issue=55 years since the first manned flight into space 1 xl 1726878
RU036.16 4/15/2016 21.00r issue=300th Anniversa.. Armed Forces of the Russian Federation 1 xl 1726879
RU037.16 4/22/2016 23r d=Kislovodsk treatment resort park xl 1726880
RU038.16 4/27/2016 19.00r issue=150th Foundatio..versary of Notaries Institute of Russia 1 xl 1726881
RU039.16 5/6/2016 19.00r issue=IIHF World Championship 2016 1 xl 1726882
RU040.16 5/20/2016 21.50r issue=Centenary of th..Alexey P. Maresiev d=Alexey P. Maresiev 1 xl 1726883
RU041.16 5/24/2016 21.00r issue=Joint issue of ..ic of Malta d=View from Vittoriosa Gate 1 xl 1726884
RU042.16 5/24/2016 21.00r d=Dulber 1 0 xl 1726885
RU043.16 5/26/2016 31r d=Rosa Khutor Alpine Resort xl 1726886
RU044.16 5/27/2016 21.00r issue=Joint issue of ..ian Orthodox Chapel on the Vršič Pass 1 xl 1726887
RU045.16 6/2/2016 37r d=Union of Philatelists of Russia xl 1726888
RU046.16 6/2/2016 19.00r d=150 Years of the Russian Historical Society xl 1726889
RU047.16 6/3/2016 90r issue=125th Anniversary o..khail A. Bulgakov d=Mikhail A. Bulgakov 1 xl 1726890
RU048.16 6/6/2016 24r issue=50 Years of the Sta..Russian Language named after AS Pushkin 1 xl 1726891
RU049.16 6/9/2016 17.00r issue=Commonwealth of Independent States 1 xl 1726892
RU050.16 6/16/2016 20.00r issue=Petersburg International Economic Forum 1 xl 1726893
RU051.16 6/22/2016 35r issue=Joint Issue of the..arus - Heroic Defence of the Brest Fort 1 xl 1726894
RU052.16 6/23/2016 19.00r issue=Service Dog breeds d=Scottish Shepherd 1 xl 1726895
RU053.16 6/23/2016 31r d=German shepherd (2016) 1 xl 1726896
RU054.16 6/23/2016 24r issue=800th Anniversary of Foundation of Rzhev City 2 xl 1726897
RU055.16 6/24/2016 19.00r issue=International News Agency "Russia Today" 1 xl 1726898
RU056.16 6/28/2016 21.50r d=200th Anniversary of the Birth of DA Milutin xl 1726899
RU057.16 6/28/2016 14r d=child in car seat xl 1726900
RU058.16 7/1/2016 20.00r issue=All-Russian Agricultural Census 2016 1 xl 1726901
RU059.16 7/5/2016 19.00r issue=GLONASS Russian Space Navigation System 1 xl 1726902
RU060.16 7/14/2016 24r issue=850th Anniversary of Founding of Velikiye Luki City 1 xl 1726903
RU061.16 7/19/2016 25r issue=State Awards of th..2016 b d=The Order for "Military Merit" 1 xl 1726904
RU062.16 7/19/2016 25r d=The Order of Naval Merit 1 0 xl 1726905
RU063.16 7/19/2016 25r d=The Order of Honor 1 0 xl 1726906
RU064.16 7/19/2016 25r d=The Parental Glory Order 1 0 xl 1726907
RU065.16 7/28/2016 24r issue=History of World W..ve military Equipment d=Fedorov Avtomat 1 xl 1726908
RU066.16 7/28/2016 24r d=Mgebrov-Isotta-Fraschini armoured vehicle 1 0 xl 1726909
RU067.16 7/28/2016 24r d=Grigorovich M-5 Flying Boat 1 0 xl 1726910
RU068.16 7/28/2016 24r d=Imperatritsa Ekaterina Velikaya Dreadnought 1 0 xl 1726911
RU069.16 7/29/2016 21.50r issue=2018 FIFA World..p. Russia in FIFA World Cup Tournaments 1 xl 1739699
RU070.16 7/29/2016 21.50r 1 0 xl 1739700
RU071.16 7/29/2016 21.50r 1 0 xl 1739701
RU072.16 7/29/2016 21.50r 1 0 xl 1739702
RU073.16 8/2/2016 21.50r issue=100th Foundation..ck Company "Likhachov Automobile Plant" 1 xl 1739703
RU074.16 8/5/2016 24r issue=450th Foundation Anniversary of Oryol City 1 xl 1739704
RU075.16 8/6/2016 24r issue=450th Foundation Anniversary of Omsk City 1 xl 1739705
RU076.16 8/9/2016 31r issue=1000th Anniversary ..ssian Presence at the Mount Athos, 2016 1 xl 1739706
RU077.16 8/19/2016 50r issue=50th Foundation An..torical and Ethnographic Museum Reserve 1 xl 1739707
RU078.16 8/19/2016 50r 1 0 xl 1739708
RU079.16 8/19/2016 50r 1 0 xl 1739709
RU080.16 8/23/2016 14r d=Coat of Arms of Velikiye Luki xl 1739710
RU081.16 8/23/2016 19.00r d=Coat of Arms of Murmansk xl 1739711
RU082.16 8/26/2016 21.50r issue=2018 FIFA World..Volgograd, Ekaterinburg, Rostov, Samara 1 xl 1739712
RU083.16 8/26/2016 21.50r 1 0 xl 1739713
RU084.16 8/26/2016 21.50r 1 0 xl 1739714
RU085.16 8/26/2016 21.50r 1 0 xl 1739715
RU086.16 8/30/2016 80r issue="Russian Arctic" National Park 1 xl 1739716
RU087.16 9/1/2016 24r issue=350th Foundation Anniversary of Ulan-Ude City 1 xl 1739717
RU088.16 9/6/2016 24r issue=Lukoil 1 xl 1739718
RU089.16 9/14/2016 19.00r issue=Unified State Exam 1 xl 1739719
RU090.16 9/16/2016 50r issue=Coat of Arms of th..ian Federation d=Republic of Ingushetia 1 xl 1739720
RU091.16 9/16/2016 50r d=Perm Region 1 0 xl 1739721
RU092.16 9/20/2016 19.00r issue=Russian Preside..ional Economy and Public Administration 1 xl 1739722
RU093.16 9/22/2016 21.50r issue=100th Anniversary of Birth of A.M. Prokhorov 1 xl 1739723
RU094.16 9/27/2016 21.50r issue=100th Anniversary of the Degtyaryov Plant 1 xl 1739724
RU095.16 10/4/2016 24r issue=100th Foundation Anniversary of Murmansk City 1 xl 1739725
RU096.16 10/5/2016 19.00r issue=Heroes of the Russian Federation 2016 d=Mark N. Evtuhin 1 xl 1739726
RU097.16 10/5/2016 19.00r d=Nikolay V. Skrypnik 1 0 xl 1739727
RU098.16 10/7/2016 24r issue=200th Anniversary of Metropolitan Macarius 1 xl 1739728
RU099.16 10/11/2016 35r issue=On the 75th anniv.. War of 1941-1945. Way to victory. The 1 xl 1739729
RU100.16 10/11/2016 35r 1 0 xl 1739730
RU101.16 10/25/2016 25r issue=Abramtsevo State ..iterary Museum Reserve d=Sergey Aksakov 1 xl 1739731
RU102.16 10/25/2016 25r d=Savva Mamontov 1 0 xl 1739732
RU103.16 10/25/2016 24r issue=Federal Customs Service d=Federal Customs Service 2 xl 1739733
RU104.16 10/27/2016 70r issue=100th Foundation ..guzinsky State Biosphere Nature Reserve 1 xl 1739734
RU105.16 10/28/2016 29r issue=2018 FIFA World C.. d=Bannikov Victor Maksimovic 1938-2001 1 1 xl 1739735
RU106.16 10/28/2016 29r d=Beeskow Konstantin Ivanovich 1920-2006 1 2 xl 1739736
RU107.16 10/28/2016 29r d=Latyshev Nikolay Gavrilovich 1913-1999 1 3 xl 1739737
RU108.16 10/28/2016 29r d=Metreveli Slava Kalistratovich 1936-1998 1 4 xl 1739738
RU109.16 10/28/2016 29r d=Morozov Nikolai Petrovich 1916-1981 1 5 xl 1739739
RU110.16 10/28/2016 29r d=Netto Igor Aleksandrovich 1930-1999 1 6 xl 1739740
RU111.16 10/28/2016 29r d=Husainov Galimzyan Salihovic 1 7 xl 1739741
RU112.16 10/31/2016 19.00r issue=1000th Anniver..ruth" First Code of Laws of Ancient Rus 1 xl 1739742
RU113.16 11/10/2016 19.00r issue=100th Anniversary of Birth of Djamaldin Kh. Yandiev 1 xl 1739743
RU114.16 11/14/2016 29r issue=Joint Issue of th..c of Argentina - Sharing our Traditions 1 xl 1739744
RU115.16 11/14/2016 29r 1 0 xl 1739745
RU116.16 11/16/2016 35r issue=Joint Issue of th..akhstan - The Battle of Moscow. Way to 1 xl 1739746
RU117.16 11/29/2016 31r d=Valery Arzumanov - "Golden Balls of Stavropol Krai, 2012" xl 1739747
RU118.16 11/29/2016 31r d=Nikolai Morgun - "Dawn, Chersonesus, 2002" 0 xl 1739748
RU119.16 11/29/2016 31r d=Yuri Orlov - "We Serv..otherland and the Special Forces, 2002" 0 xl 1739749
RU120.16 11/29/2016 31r d=Dmitry Tugarinov - "M..o Alexander Suvorov, 1999. Switzerland" 0 xl 1739750
RU121.16 12/1/2016 19.00r issue=Happy New Year 2017 1 xl 1739751
RU122.16 12/2/2016 19.00r issue=Outstanding Rus..ladimir Alexandrovich Tumanov 1926-2011 1 3 xl 1739752
RU123.16 12/2/2016 19.00r d=Konstantin Ivanovich Palen 1 2 xl 1739753
RU124.16 12/2/2016 19.00r d=Gabriel Feliksovich Shershenevich 1863-1912 1 1 xl 1739754
RU125.16 12/8/2016 19.00r issue=F-1 Nuclear Reactor, the first in Eurasia 1 xl 1739755
RU126.16 12/9/2016 29r issue=2018 FIFA World Cu..oly Andreyevich Banishevsky 1946–1997 1 1 xl 1739756
RU127.16 12/9/2016 29r d=Valery Ivanovich Voronin 1939–1998 1 2 xl 1739757
RU128.16 12/9/2016 29r d=Anatoly Mikhailovich Ilyin 1931–2016 1 3 xl 1739758
RU129.16 12/9/2016 29r d=Evgeny Vasilyevich Rudakov 1942–2011 1 4 xl 1739759
RU130.16 12/9/2016 29r d=Pavel Fyodorovich Sadyrin 1942–2001 1 5 xl 1739760
RU131.16 12/9/2016 29r d=Igor Leonidovich Chislenko 1939–1994 1 6 xl 1739761
RU132.16 12/9/2016 29r d=Albert Alekseyevich Shesternev 1941–1994 1 7 xl 1739762
RU133.16 12/13/2016 21.50r issue=Joint Issue of..atogo apostola Ioanna Bogoslova v Kaneo 1 1 xl 1739763
RU134.16 12/13/2016 21.50r d=Sobor Svyatoj ZHivonachalnoj Troicy 1 2 xl 1739764
RU135.16 12/14/2016 70r issue=70th Anniversary ..national Military Tribunal in Nuremberg 1 xl 1739765
RU136.16 12/20/2016 19.00r issue=History of the..r. The MFA of the Russian Empire (1834) 1 1 xl 1739766
RU137.16 12/20/2016 19.00r d=A state counselor ..r. The MFA of the Russian Empire (1904) 1 2 xl 1739767
RU138.16 12/20/2016 19.00r d=An Ambassador Extr..nd an attaché of the People's Commissa 1 3 xl 1739768
RU139.16 12/20/2016 19.00r d=Ambassadors Extrao..ntiary of the Russian Federation (2001) 1 4 xl 1739769
2017
RU001.17 1/16/2017 19.00r issue=100th birth ann..Yevgeny Zababakhin d=Yevgeny Zababakhin 1 xl 2073285
RU002.17 1/24/2017 29.00r issue=Joint issue of ..trations - National crafts - Bast sanda 1 xl 2073286
RU003.17 2/7/2017 100.00r d=2018 FIFA World Cup Russia Official Mascot xl 2073287
RU004.17 2/7/2017 19.00r d=Major General Sulom-Beck Oskanov xl 2073288
RU005.17 10/10/2017 19.00r d=Andrei Gennadyevich Karlov xl 2073360
RU006.17 2/27/2017 19.00r issue=Office of the H.. Human Rights in the Russian Federation 1 xl 2073289
RU007.17 3/2/2017 35.00r issue=100th Anniversary of the Great Russian Revolution 1 xl 2073290
RU008.17 3/2/2017 35.00r 1 0 xl 2073291
RU009.17 3/2/2017 35.00r 1 0 xl 2073292
RU010.17 3/2/2017 35.00r 1 0 xl 2073293
RU011.17 3/9/2017 35.00r issue=FIFA Confederations Cup Russia 2017 1 xl 2073294
RU012.17 3/15/2017 24r issue=Europa 2017 d=St Petersburg Mikhailovsky Castle 1 xl 2073295
RU013.17 3/23/2017 19.00r d=Sergey Ashikhmin xl 2073296
RU014.17 3/23/2017 19.00r d=Vadim Yermakov 0 xl 2073297
RU015.17 3/27/2017 35.00r issue=Interparliamentary Assembly of the CIS Member Nations 1 xl 2073298
RU016.17 3/29/2017 29.00r issue=125th Anniversa..e Sochi Arboretum d=Galanthus woronowii 1 xl 2073299
RU017.17 3/29/2017 29.00r d=Erythronium caucasicum 1 0 xl 2073300
RU018.17 3/29/2017 29.00r d=Diospyros lotus 1 0 xl 2073301
RU019.17 3/29/2017 29.00r d=Cyclamen coum sp.caucasicum 1 0 xl 2073302
RU020.17 3/31/2017 24r issue=100th Anniversary ..Krassin Icebreaker d=Krassin Icebreaker 1 xl 2073303
RU021.17 4/4/2017 35.00r issue=Turtles 2017 d=Emys orbicularis (2017) 1 xl 2073304
RU022.17 4/4/2017 35.00r d=Pelodiscus sinensis 1 0 xl 2073305
RU023.17 4/4/2017 35.00r d=Mauremys caspica 1 0 xl 2073306
RU024.17 4/4/2017 35.00r d=Testudo graeca 1 0 xl 2073307
RU025.17 4/11/2017 19.00r issue=75th Anniversar..he Mechanical Engineering Design Bureau 1 xl 2073308
RU026.17 4/21/2017 100.00r issue=Association of.. Agencies and Internal Troops of Russia 1 xl 2073309
RU027.17 4/26/2017 90.00r issue=775th Anniversary of the Battle on the Ice 1 xl 2073310
RU028.17 5/4/2017 41.00r issue=75th Anniversary.. the Victory in the Great Patriotic War 1 xl 2073311
RU029.17 5/15/2017 22r issue=25th All-Russian Festival "Russian Student Spring" 1 xl 2073312
RU030.17 5/17/2017 35.00r issue=Russian Fables .. The Rooster & the Pearl VKTrediakovsky 1 1 xl 2073313
RU031.17 5/17/2017 35.00r d=Fable Fox & the Grapes I A Krylov 1 3 xl 2073314
RU032.17 5/17/2017 35.00r d=Fable The Fable The Wolf & the Crane AP Sumarokov 1 2 xl 2073315
RU033.17 5/17/2017 35.00r d=Fable The Hare & the Turtle SV Mikhalkov 1 4 xl 2073316
RU034.17 5/24/2017 95.00r issue=175th Anniversa..y Vereshchagin d=by Vasily Vereshchagin 1 xl 2073317
RU035.17 5/30/2017 60.00r xl 2073318
RU036.17 6/1/2017 27.00r issue=100th Anniversary of the Izvestiya Newspaper 1 xl 2073319
RU037.17 6/4/2017 25.00r issue=25th Anniversary of the Republic of Ingushetia 1 xl 2073320
RU038.17 6/5/2017 22r issue=Year of Ecology in Russia 1 xl 2073321
RU039.17 6/28/2017 22r issue=DOSAAF of Russia d=Pistol shooting 1 xl 2073322
RU040.17 6/28/2017 22r d=Radiosport 1 0 xl 2073323
RU041.17 6/29/2017 33.00r d=350th Anniversary of Russian State Shipbuilding xl 2073324
RU042.17 6/29/2017 16.00r d=Arms of Azov xl 2073325
RU043.17 6/29/2017 22r d=Arms of Orekhovo-Zuyevo xl 2073326
RU044.17 6/30/2017 22r d=Military Cathedral of Resurrection of Christ xl 2073327
RU045.17 7/3/2017 22r issue=Joint issue of Russia and Thailand - State Rulers 1 xl 2073328
RU046.17 7/10/2017 60.00r d=arms of Kaliningrad Oblast xl 2073329
RU047.17 7/12/2017 100.00r issue=100th Annivers..ltural and Archeological Museum Reserve 1 xl 2073330
RU048.17 7/21/2017 22r issue=225th Anniversary of birth of Pyotr Vyazemsky 1 xl 2073331
RU049.17 7/25/2017 95.00r issue=200th Birth ann..of Ivan Aivazovsky d=by Ivan Aivazovsky 1 xl 2073332
RU050.17 7/28/2017 90.00r issue=525th Anniversa..Ivangorod Fortress d=Ivangorod Fortress 1 xl 2073333
RU051.17 8/3/2017 35.00r issue=19th World Festival of Youth and Students d=1957 Moscow 1 1 xl 2073334
RU052.17 8/3/2017 35.00r d=1985 Moscow 1 2 xl 2073335
RU053.17 8/3/2017 35.00r d=1973 Berlin 1 3 xl 2073336
RU054.17 8/3/2017 35.00r d=1978 Havana 1 4 xl 2073337
RU055.17 8/3/2017 35.00r d=1989 Pyongyang 1 5 xl 2073338
RU056.17 8/11/2017 41.00r d=Crimean Campaign and the Siege of Sevastopol xl 2073339
RU057.17 8/23/2017 22r issue=World Cup 2017 dt=stadiums (2017) d=Stadium Kaliningrad 1 xl 2073340
RU058.17 8/23/2017 22r d=Stadium Nizhny Novgorod 1 0 xl 2073341
RU059.17 8/23/2017 22r d=Stadium St Petersburg 1 0 xl 2073342
RU060.17 8/23/2017 22r d=Stadium "Mordovia Arena" 1 0 xl 2073343
RU061.17 8/23/2017 27.00r issue=200th Anniversa..andrite Antonin d=Archimandrite Antonin 2 xl 2073344
RU062.17 8/24/2017 41.00r issue=5th Anniversary of Victory in the Great Patriotic War 1 xl 2073345
RU063.17 8/29/2017 27.00r d=Cavalier of the Ord..ed (continuation of the series) - Fazu xl 2073346
RU064.17 8/30/2017 22r issue=2017 d=Aleksandrov kremlin 1 xl 2073347
RU065.17 8/30/2017 41.00r d=Vologda kremlin 1 xl 2073348
RU066.17 9/1/2017 41.00r issue=75th anniversary.. War d=Aviation Regiment Normandy-Neman 1 xl 2073349
RU067.17 9/13/2017 35.00r issue=Contemporary Russian Art d=Missing the missing 1946 1 1 xl 2073350
RU068.17 9/13/2017 35.00r d=Autumn Evening 2009 1 4 xl 2073351
RU069.17 9/13/2017 35.00r d=Conversation 2007 1 3 xl 2073352
RU070.17 9/13/2017 35.00r d=The Sower 2008 1 2 xl 2073353
RU071.17 9/21/2017 35.00r issue=100th birth ann..of Indira Gandhi d=Indira Gandhi (2017) 1 xl 2073354
RU072.17 9/27/2017 27.00r d=Military Academy of..ral Staff of the Armed Forces of Russia xl 2073355
RU073.17 9/28/2017 22r d=Vladislav Dolonin xl 2073356
RU074.17 9/28/2017 22r d=Viktor Matveyev 0 xl 2073357
RU075.17 10/3/2017 27.00r d=Civil defence of the Russian Federation xl 2073358
RU076.17 10/6/2017 27.00r d=Investigative Committee of Russia xl 2073359
RU077.17 10/14/2017 100.00r issue=19th World Festival of Youth and Students b 1 xl 2073361
RU078.17 10/14/2017 35.00r d=Inter-Parliamentary Union Assembly xl 2073362
RU079.17 10/23/2017 22r issue=Zhostovo Painting 1 xl 2073363
RU080.17 10/23/2017 22r 1 0 xl 2073364
RU081.17 10/23/2017 22r 1 0 xl 2073365
RU082.17 10/23/2017 22r 1 0 xl 2073366
RU083.17 10/25/2017 22r issue=History of the Ru..ical department & specialist cynologist 1 4 xl 2073367
RU084.17 10/25/2017 22r d=Controller & chief Main Customs Directorate USSR 1 3 xl 2073368
RU085.17 10/25/2017 22r d=Controller & customs manager 1904 1 2 xl 2073369
RU086.17 10/25/2017 22r d=Customs guard & customs manager 1827 1 1 xl 2073370
RU087.17 10/26/2017 35.00r issue=Joint issue of..and the Republic of India - Folk dances 1 xl 2073371
RU088.17 10/26/2017 35.00r 1 0 xl 2073372
RU089.17 10/31/2017 27.00r issue=Joint issue of..s and the Republic of Kazakhstan - Mir 1 xl 2073373
RU090.17 11/1/2017 22r issue=50th Anniversary o..sian state satellite communication oper 1 xl 2073374
RU091.17 11/7/2017 50.00r issue=50th Anniversar..chnical Centre d=Ostankino Tower (2017) 1 1 xl 2073375
RU092.17 11/7/2017 50.00r d=Ostankino Television Technical Centre 1 2 xl 2073376
RU093.17 11/14/2017 35.00r issue=Joint issue of.. and the State of Israel - Architecture 1 xl 2073377
RU094.17 11/16/2017 22r issue=Treasures of Russ..endant with a raspberry-pink tourmaline 1 4 xl 2073378
RU095.17 11/16/2017 22r d=State 1 3 xl 2073379
RU096.17 11/16/2017 22r d=Brooch with emerald 1 2 xl 2073380
RU097.17 11/16/2017 22r d=Diamond Orlov 1 1 xl 2073381
RU098.17 11/20/2017 27.00r d=Maya Plisetskaya 1925–2015 a Ballet Dancer xl 2073382
RU099.17 11/29/2017 27.00r d=Prosecutor General's Office of the Russian Federation xl 2073383
RU100.17 11/29/2017 41.00r issue=100th Annivers..f restoration of Patriarchate in Russia 1 xl 2073384
RU101.17 12/1/2017 22r issue=Happy New Year! The 2018 FIFA World Cup Russia Mascot 1 xl 2073385
RU102.17 12/1/2017 33.00r 1 xl 2073386
RU103.17 12/1/2017 35.00r 1 xl 2073387
RU104.17 12/4/2017 22r issue=Outstanding Lawyer.. of the series) d=NM Korkunov 1853-1904 1 xl 2073388
RU105.17 12/4/2017 22r d=II Dmitriev 1760-1837 1 0 xl 2073389
RU106.17 12/4/2017 22r d=S.S. Alekseev 1 0 xl 2073390
RU107.17 12/7/2017 27.00r d=The Federal Treasury xl 2073391
RU108.17 12/8/2017 35.00r xl 2073392
RU109.17 12/18/2017 27.00r d=Yevgeny Primakov xl 2073393
RU110.17 12/18/2017 35.00r issue=Joint issue of..alist Republic of Sri Lanka - Architect 1 xl 2073394
RU111.17 12/18/2017 35.00r 1 0 xl 2073395
RU112.17 12/20/2017 27.00r issue=100th Anniversary of State security agencies 1 xl 2073396
RU113.17 12/20/2017 22r issue=World Cup 2018 in 2017 b 2 xl 2073397
RU114.17 12/20/2017 22r 2 0 xl 2073398
RU115.17 12/20/2017 22r 2 0 xl 2073399
RU116.17 12/20/2017 22r 2 0 xl 2073400


Prefixes: 02, 03, 04, 05, 06, 07, 08, 09, 10, 11, 12, 13, 14, 15, 16, 17
Suffixes: .13
Record of changes